<?xml version="1.0" encoding="UTF-8"?>
<gpx version="1.1" creator="2bulu-scraper" xmlns="http://www.topografix.com/GPX/1/1">
  <metadata><name>凌霄城（张先森）</name><desc>source: 2bulu.com trackId=84531063; exported 2026-08-30T14:30:27.936Z</desc></metadata>
  <wpt lat="28.2940234" lon="105.0324319"><ele>385</ele><name>走错了
        </name></wpt>
  <wpt lat="28.2949172" lon="105.0311733"><ele>373</ele><name>进山
        </name></wpt>
  <wpt lat="28.2945596" lon="105.0310396"><ele>380</ele><name>走错了
        </name></wpt>
  <wpt lat="28.2947023" lon="105.0310361"><ele>379</ele><name>
        </name></wpt>
  <wpt lat="28.2944751" lon="105.0307534"><ele>387</ele><name>
        </name></wpt>
  <wpt lat="28.2939851" lon="105.0294648"><ele>449</ele><name>
        </name></wpt>
  <wpt lat="28.2938041" lon="105.0290583"><ele>467</ele><name>
        </name></wpt>
  <wpt lat="28.2887979" lon="105.0256345"><ele>637</ele><name>
        </name></wpt>
  <wpt lat="28.2879053" lon="105.0243538"><ele>659</ele><name>
        </name></wpt>
  <wpt lat="28.28732" lon="105.0249295"><ele>678</ele><name>
        </name></wpt>
  <wpt lat="28.2862569" lon="105.0251144"><ele>698</ele><name>
        </name></wpt>
  <wpt lat="28.2855973" lon="105.0171413"><ele>581</ele><name>蛮洞子
        </name></wpt>
  <wpt lat="28.2856111" lon="105.0172494"><ele>568</ele><name>
        </name></wpt>
  <wpt lat="28.2851723" lon="105.0174282"><ele>592</ele><name>
        </name></wpt>
  <wpt lat="28.285173" lon="105.0174264"><ele>590</ele><name>
        </name></wpt>
  <wpt lat="28.2847624" lon="105.0203911"><ele>707</ele><name>
        </name></wpt>
  <wpt lat="28.283754" lon="105.0234679"><ele>955</ele><name>
        </name></wpt>
  <wpt lat="28.2825724" lon="105.0227723"><ele>959</ele><name>
        </name></wpt>
  <wpt lat="28.2841776" lon="105.0303427"><ele>614</ele><name>
        </name></wpt>
  <wpt lat="28.2857597" lon="105.0284545"><ele>653</ele><name>
        </name></wpt>
  <wpt lat="28.2909903" lon="105.0283567"><ele>547</ele><name>
        </name></wpt>
  <wpt lat="28.2930214" lon="105.0289829"><ele>504</ele><name>
        </name></wpt>
  <wpt lat="28.2932854" lon="105.0288239"><ele>491</ele><name>
        </name></wpt>
  <trk><name>凌霄城（张先森）</name>
      <trkseg>
        <trkpt lat="28.2958778" lon="105.0329971"><ele>377.34</ele><time>2026-05-18T18:45:36.000Z</time></trkpt>
        <trkpt lat="28.2958098" lon="105.0329432"><ele>377.34</ele><time>2026-05-18T18:45:56.000Z</time></trkpt>
        <trkpt lat="28.2957797" lon="105.0328338"><ele>377.04</ele><time>2026-05-18T18:46:30.000Z</time></trkpt>
        <trkpt lat="28.2957704" lon="105.0327039"><ele>374.63</ele><time>2026-05-18T18:46:38.000Z</time></trkpt>
        <trkpt lat="28.2957721" lon="105.0325646"><ele>372.46</ele><time>2026-05-18T18:46:46.000Z</time></trkpt>
        <trkpt lat="28.2957327" lon="105.0324488"><ele>370.4</ele><time>2026-05-18T18:46:54.000Z</time></trkpt>
        <trkpt lat="28.2956765" lon="105.0323403"><ele>368.26</ele><time>2026-05-18T18:47:02.000Z</time></trkpt>
        <trkpt lat="28.2956097" lon="105.0322367"><ele>367.49</ele><time>2026-05-18T18:47:10.000Z</time></trkpt>
        <trkpt lat="28.2955509" lon="105.0321286"><ele>367.59</ele><time>2026-05-18T18:47:18.000Z</time></trkpt>
        <trkpt lat="28.295527" lon="105.0320159"><ele>367.61</ele><time>2026-05-18T18:47:26.000Z</time></trkpt>
        <trkpt lat="28.2955649" lon="105.0319193"><ele>367.37</ele><time>2026-05-18T18:47:34.000Z</time></trkpt>
        <trkpt lat="28.2956092" lon="105.0318096"><ele>367.54</ele><time>2026-05-18T18:47:44.000Z</time></trkpt>
        <trkpt lat="28.2955967" lon="105.0316897"><ele>367.99</ele><time>2026-05-18T18:47:54.000Z</time></trkpt>
        <trkpt lat="28.2955574" lon="105.0315829"><ele>367.98</ele><time>2026-05-18T18:48:04.000Z</time></trkpt>
        <trkpt lat="28.2955202" lon="105.0314775"><ele>368.39</ele><time>2026-05-18T18:48:14.000Z</time></trkpt>
        <trkpt lat="28.2954769" lon="105.0313698"><ele>369.37</ele><time>2026-05-18T18:48:26.000Z</time></trkpt>
        <trkpt lat="28.2954429" lon="105.031265"><ele>370.75</ele><time>2026-05-18T18:48:36.000Z</time></trkpt>
        <trkpt lat="28.2954158" lon="105.0311519"><ele>371.42</ele><time>2026-05-18T18:48:46.000Z</time></trkpt>
        <trkpt lat="28.2953979" lon="105.0310981"><ele>371.96</ele><time>2026-05-18T18:48:50.000Z</time></trkpt>
        <trkpt lat="28.2953271" lon="105.0310657"><ele>372.71</ele><time>2026-05-18T18:49:00.000Z</time></trkpt>
        <trkpt lat="28.2952286" lon="105.0310997"><ele>373.36</ele><time>2026-05-18T18:49:10.000Z</time></trkpt>
        <trkpt lat="28.2951324" lon="105.0311509"><ele>373.12</ele><time>2026-05-18T18:49:18.000Z</time></trkpt>
        <trkpt lat="28.2950329" lon="105.0312238"><ele>373.47</ele><time>2026-05-18T18:49:28.000Z</time></trkpt>
        <trkpt lat="28.2949473" lon="105.0312882"><ele>374.22</ele><time>2026-05-18T18:49:36.000Z</time></trkpt>
        <trkpt lat="28.2948609" lon="105.0313452"><ele>374.76</ele><time>2026-05-18T18:49:44.000Z</time></trkpt>
        <trkpt lat="28.2947767" lon="105.0313899"><ele>375.36</ele><time>2026-05-18T18:49:52.000Z</time></trkpt>
        <trkpt lat="28.2947264" lon="105.0314157"><ele>376.17</ele><time>2026-05-18T18:49:58.000Z</time></trkpt>
        <trkpt lat="28.2946502" lon="105.0314694"><ele>376.79</ele><time>2026-05-18T18:50:16.000Z</time></trkpt>
        <trkpt lat="28.294626" lon="105.0314969"><ele>376.32</ele><time>2026-05-18T18:50:20.000Z</time></trkpt>
        <trkpt lat="28.2945818" lon="105.0315658"><ele>376.19</ele><time>2026-05-18T18:50:30.000Z</time></trkpt>
        <trkpt lat="28.2945299" lon="105.0316549"><ele>377.12</ele><time>2026-05-18T18:50:42.000Z</time></trkpt>
        <trkpt lat="28.294472" lon="105.0317561"><ele>377.86</ele><time>2026-05-18T18:50:50.000Z</time></trkpt>
        <trkpt lat="28.2944123" lon="105.0318607"><ele>378.51</ele><time>2026-05-18T18:51:00.000Z</time></trkpt>
        <trkpt lat="28.2943475" lon="105.0319618"><ele>378.95</ele><time>2026-05-18T18:51:10.000Z</time></trkpt>
        <trkpt lat="28.2942839" lon="105.0320586"><ele>378.81</ele><time>2026-05-18T18:51:18.000Z</time></trkpt>
        <trkpt lat="28.2942305" lon="105.0321574"><ele>379.56</ele><time>2026-05-18T18:51:28.000Z</time></trkpt>
        <trkpt lat="28.2941646" lon="105.0322507"><ele>380.81</ele><time>2026-05-18T18:51:36.000Z</time></trkpt>
        <trkpt lat="28.2940887" lon="105.032338"><ele>381.83</ele><time>2026-05-18T18:51:42.000Z</time></trkpt>
        <trkpt lat="28.2940234" lon="105.0324319"><ele>383.42</ele><time>2026-05-18T18:51:52.000Z</time></trkpt>
        <trkpt lat="28.2940654" lon="105.0323688"><ele>384.24</ele><time>2026-05-18T18:52:06.000Z</time></trkpt>
        <trkpt lat="28.2941475" lon="105.0322574"><ele>380.94</ele><time>2026-05-18T18:52:12.000Z</time></trkpt>
        <trkpt lat="28.2942337" lon="105.0321448"><ele>377.45</ele><time>2026-05-18T18:52:18.000Z</time></trkpt>
        <trkpt lat="28.2943215" lon="105.032028"><ele>374.72</ele><time>2026-05-18T18:52:26.000Z</time></trkpt>
        <trkpt lat="28.2943932" lon="105.0319302"><ele>374.17</ele><time>2026-05-18T18:52:32.000Z</time></trkpt>
        <trkpt lat="28.2944704" lon="105.0318529"><ele>374.11</ele><time>2026-05-18T18:52:38.000Z</time></trkpt>
        <trkpt lat="28.2945262" lon="105.0317632"><ele>373.87</ele><time>2026-05-18T18:52:44.000Z</time></trkpt>
        <trkpt lat="28.2945769" lon="105.0316493"><ele>373.09</ele><time>2026-05-18T18:52:52.000Z</time></trkpt>
        <trkpt lat="28.2946184" lon="105.0315459"><ele>371.94</ele><time>2026-05-18T18:52:58.000Z</time></trkpt>
        <trkpt lat="28.2946818" lon="105.0314475"><ele>371.15</ele><time>2026-05-18T18:53:06.000Z</time></trkpt>
        <trkpt lat="28.2947704" lon="105.0313695"><ele>370</ele><time>2026-05-18T18:53:14.000Z</time></trkpt>
        <trkpt lat="28.2948639" lon="105.0313334"><ele>367.93</ele><time>2026-05-18T18:53:20.000Z</time></trkpt>
        <trkpt lat="28.2949564" lon="105.0313148"><ele>366.27</ele><time>2026-05-18T18:53:28.000Z</time></trkpt>
        <trkpt lat="28.2949587" lon="105.0312394"><ele>365.85</ele><time>2026-05-18T18:53:54.000Z</time></trkpt>
        <trkpt lat="28.2949172" lon="105.0311733"><ele>366.45</ele><time>2026-05-18T18:54:04.000Z</time></trkpt>
        <trkpt lat="28.2948241" lon="105.0311609"><ele>369.1</ele><time>2026-05-18T18:54:18.000Z</time></trkpt>
        <trkpt lat="28.2947217" lon="105.031135"><ele>371.06</ele><time>2026-05-18T18:54:28.000Z</time></trkpt>
        <trkpt lat="28.2946257" lon="105.0310975"><ele>372.28</ele><time>2026-05-18T18:55:24.000Z</time></trkpt>
        <trkpt lat="28.2945357" lon="105.0310442"><ele>372.91</ele><time>2026-05-18T18:55:44.000Z</time></trkpt>
        <trkpt lat="28.2944505" lon="105.030993"><ele>374.61</ele><time>2026-05-18T18:55:56.000Z</time></trkpt>
        <trkpt lat="28.2945034" lon="105.0310111"><ele>376.73</ele><time>2026-05-18T18:56:18.000Z</time></trkpt>
        <trkpt lat="28.2945596" lon="105.0310396"><ele>378.76</ele><time>2026-05-18T18:56:24.000Z</time></trkpt>
        <trkpt lat="28.2946576" lon="105.0310985"><ele>379.47</ele><time>2026-05-18T18:56:42.000Z</time></trkpt>
        <trkpt lat="28.2947023" lon="105.0310361"><ele>378.51</ele><time>2026-05-18T18:56:50.000Z</time></trkpt>
        <trkpt lat="28.2946962" lon="105.0309258"><ele>378.74</ele><time>2026-05-18T18:57:06.000Z</time></trkpt>
        <trkpt lat="28.2946201" lon="105.0308946"><ele>379.81</ele><time>2026-05-18T18:57:16.000Z</time></trkpt>
        <trkpt lat="28.294537" lon="105.0308391"><ele>381.44</ele><time>2026-05-18T18:57:34.000Z</time></trkpt>
        <trkpt lat="28.2944751" lon="105.0307534"><ele>381.96</ele><time>2026-05-18T18:57:46.000Z</time></trkpt>
        <trkpt lat="28.2943977" lon="105.0306779"><ele>384.2</ele><time>2026-05-18T18:58:00.000Z</time></trkpt>
        <trkpt lat="28.2943139" lon="105.0306227"><ele>387.74</ele><time>2026-05-18T18:58:08.000Z</time></trkpt>
        <trkpt lat="28.2942775" lon="105.0305937"><ele>392.36</ele><time>2026-05-18T18:58:16.000Z</time></trkpt>
        <trkpt lat="28.294233" lon="105.0305236"><ele>395.48</ele><time>2026-05-18T18:58:36.000Z</time></trkpt>
        <trkpt lat="28.2941759" lon="105.0304441"><ele>398.95</ele><time>2026-05-18T18:58:54.000Z</time></trkpt>
        <trkpt lat="28.2941166" lon="105.0303595"><ele>401.42</ele><time>2026-05-18T18:59:08.000Z</time></trkpt>
        <trkpt lat="28.2940504" lon="105.0302799"><ele>406.28</ele><time>2026-05-18T18:59:38.000Z</time></trkpt>
        <trkpt lat="28.2940023" lon="105.0301908"><ele>409.97</ele><time>2026-05-18T18:59:54.000Z</time></trkpt>
        <trkpt lat="28.2939944" lon="105.0300855"><ele>413.33</ele><time>2026-05-18T19:00:14.000Z</time></trkpt>
        <trkpt lat="28.2940535" lon="105.030013"><ele>416.29</ele><time>2026-05-18T19:00:28.000Z</time></trkpt>
        <trkpt lat="28.2941476" lon="105.0300203"><ele>419.49</ele><time>2026-05-18T19:01:14.000Z</time></trkpt>
        <trkpt lat="28.2941618" lon="105.029951"><ele>424.4</ele><time>2026-05-18T19:01:26.000Z</time></trkpt>
        <trkpt lat="28.2941577" lon="105.029908"><ele>427.59</ele><time>2026-05-18T19:01:30.000Z</time></trkpt>
        <trkpt lat="28.2941192" lon="105.0298282"><ele>430.2</ele><time>2026-05-18T19:01:52.000Z</time></trkpt>
        <trkpt lat="28.2941045" lon="105.029725"><ele>433.01</ele><time>2026-05-18T19:02:18.000Z</time></trkpt>
        <trkpt lat="28.2940512" lon="105.0296275"><ele>434.62</ele><time>2026-05-18T19:04:14.000Z</time></trkpt>
        <trkpt lat="28.2941295" lon="105.0296876"><ele>439.89</ele><time>2026-05-18T19:06:38.000Z</time></trkpt>
        <trkpt lat="28.2940768" lon="105.0295924"><ele>442.39</ele><time>2026-05-18T19:06:48.000Z</time></trkpt>
        <trkpt lat="28.2941064" lon="105.0296574"><ele>443.71</ele><time>2026-05-18T19:07:36.000Z</time></trkpt>
        <trkpt lat="28.2940611" lon="105.0296135"><ele>443.68</ele><time>2026-05-18T19:07:56.000Z</time></trkpt>
        <trkpt lat="28.2940275" lon="105.0295547"><ele>445.28</ele><time>2026-05-18T19:08:06.000Z</time></trkpt>
        <trkpt lat="28.2939851" lon="105.0294648"><ele>445.96</ele><time>2026-05-18T19:08:56.000Z</time></trkpt>
        <trkpt lat="28.2939027" lon="105.0294226"><ele>447.39</ele><time>2026-05-18T19:09:14.000Z</time></trkpt>
        <trkpt lat="28.2938064" lon="105.0294051"><ele>450.91</ele><time>2026-05-18T19:09:34.000Z</time></trkpt>
        <trkpt lat="28.2937222" lon="105.029358"><ele>453.89</ele><time>2026-05-18T19:09:48.000Z</time></trkpt>
        <trkpt lat="28.293693" lon="105.0293341"><ele>458.58</ele><time>2026-05-18T19:09:50.000Z</time></trkpt>
        <trkpt lat="28.2937298" lon="105.0292643"><ele>461.32</ele><time>2026-05-18T19:10:06.000Z</time></trkpt>
        <trkpt lat="28.2937753" lon="105.0291648"><ele>464.09</ele><time>2026-05-18T19:10:16.000Z</time></trkpt>
        <trkpt lat="28.2938041" lon="105.0290583"><ele>464.63</ele><time>2026-05-18T19:10:24.000Z</time></trkpt>
        <trkpt lat="28.2938418" lon="105.0289582"><ele>465.81</ele><time>2026-05-18T19:10:38.000Z</time></trkpt>
        <trkpt lat="28.2937899" lon="105.0289029"><ele>470.7</ele><time>2026-05-18T19:10:52.000Z</time></trkpt>
        <trkpt lat="28.2936926" lon="105.0288748"><ele>474.95</ele><time>2026-05-18T19:11:04.000Z</time></trkpt>
        <trkpt lat="28.2935849" lon="105.0288855"><ele>478.35</ele><time>2026-05-18T19:11:18.000Z</time></trkpt>
        <trkpt lat="28.2934773" lon="105.0288889"><ele>480.84</ele><time>2026-05-18T19:11:32.000Z</time></trkpt>
        <trkpt lat="28.2933655" lon="105.0288642"><ele>480.75</ele><time>2026-05-18T19:11:56.000Z</time></trkpt>
        <trkpt lat="28.2932778" lon="105.0288521"><ele>484.59</ele><time>2026-05-18T19:12:06.000Z</time></trkpt>
        <trkpt lat="28.2932902" lon="105.0287752"><ele>487.8</ele><time>2026-05-18T19:12:24.000Z</time></trkpt>
        <trkpt lat="28.2932436" lon="105.0286983"><ele>489.01</ele><time>2026-05-18T19:12:40.000Z</time></trkpt>
        <trkpt lat="28.2932368" lon="105.0285922"><ele>491.41</ele><time>2026-05-18T19:12:52.000Z</time></trkpt>
        <trkpt lat="28.2932094" lon="105.028485"><ele>493.81</ele><time>2026-05-18T19:13:10.000Z</time></trkpt>
        <trkpt lat="28.2931937" lon="105.0283702"><ele>497.59</ele><time>2026-05-18T19:13:26.000Z</time></trkpt>
        <trkpt lat="28.293237" lon="105.0282827"><ele>499.15</ele><time>2026-05-18T19:13:38.000Z</time></trkpt>
        <trkpt lat="28.2932719" lon="105.0281748"><ele>501.06</ele><time>2026-05-18T19:13:52.000Z</time></trkpt>
        <trkpt lat="28.2932636" lon="105.0280682"><ele>501.52</ele><time>2026-05-18T19:14:00.000Z</time></trkpt>
        <trkpt lat="28.2932553" lon="105.0279575"><ele>502.11</ele><time>2026-05-18T19:14:12.000Z</time></trkpt>
        <trkpt lat="28.2931783" lon="105.0279474"><ele>502.89</ele><time>2026-05-18T19:14:30.000Z</time></trkpt>
        <trkpt lat="28.2930795" lon="105.0279143"><ele>506.08</ele><time>2026-05-18T19:14:40.000Z</time></trkpt>
        <trkpt lat="28.2929906" lon="105.0278491"><ele>508.14</ele><time>2026-05-18T19:14:50.000Z</time></trkpt>
        <trkpt lat="28.2929513" lon="105.0278297"><ele>509.58</ele><time>2026-05-18T19:14:54.000Z</time></trkpt>
        <trkpt lat="28.2928792" lon="105.0277778"><ele>510.66</ele><time>2026-05-18T19:15:06.000Z</time></trkpt>
        <trkpt lat="28.2928086" lon="105.0277109"><ele>510.42</ele><time>2026-05-18T19:15:14.000Z</time></trkpt>
        <trkpt lat="28.292736" lon="105.0276335"><ele>510.66</ele><time>2026-05-18T19:15:22.000Z</time></trkpt>
        <trkpt lat="28.2926728" lon="105.0275378"><ele>511.39</ele><time>2026-05-18T19:15:32.000Z</time></trkpt>
        <trkpt lat="28.2925968" lon="105.0274682"><ele>513.3</ele><time>2026-05-18T19:15:42.000Z</time></trkpt>
        <trkpt lat="28.2925559" lon="105.0273691"><ele>514.57</ele><time>2026-05-18T19:15:52.000Z</time></trkpt>
        <trkpt lat="28.2925147" lon="105.0272749"><ele>514.32</ele><time>2026-05-18T19:16:02.000Z</time></trkpt>
        <trkpt lat="28.2924748" lon="105.0271798"><ele>515.27</ele><time>2026-05-18T19:16:08.000Z</time></trkpt>
        <trkpt lat="28.292394" lon="105.0271252"><ele>518.28</ele><time>2026-05-18T19:16:30.000Z</time></trkpt>
        <trkpt lat="28.2922932" lon="105.0270849"><ele>520.96</ele><time>2026-05-18T19:16:38.000Z</time></trkpt>
        <trkpt lat="28.292184" lon="105.0270965"><ele>522.59</ele><time>2026-05-18T19:16:46.000Z</time></trkpt>
        <trkpt lat="28.2920788" lon="105.0271096"><ele>523.48</ele><time>2026-05-18T19:16:54.000Z</time></trkpt>
        <trkpt lat="28.2919719" lon="105.0271253"><ele>525.79</ele><time>2026-05-18T19:17:02.000Z</time></trkpt>
        <trkpt lat="28.2918769" lon="105.0270968"><ele>527.19</ele><time>2026-05-18T19:17:14.000Z</time></trkpt>
        <trkpt lat="28.2918337" lon="105.0270493"><ele>527.16</ele><time>2026-05-18T19:17:26.000Z</time></trkpt>
        <trkpt lat="28.2917934" lon="105.0269678"><ele>527.26</ele><time>2026-05-18T19:17:42.000Z</time></trkpt>
        <trkpt lat="28.2917463" lon="105.0268923"><ele>528.75</ele><time>2026-05-18T19:18:00.000Z</time></trkpt>
        <trkpt lat="28.2916646" lon="105.0268517"><ele>532.64</ele><time>2026-05-18T19:18:16.000Z</time></trkpt>
        <trkpt lat="28.2915647" lon="105.0268621"><ele>537.22</ele><time>2026-05-18T19:18:34.000Z</time></trkpt>
        <trkpt lat="28.2914691" lon="105.0268505"><ele>541.41</ele><time>2026-05-18T19:18:50.000Z</time></trkpt>
        <trkpt lat="28.2913777" lon="105.0268928"><ele>544.21</ele><time>2026-05-18T19:19:08.000Z</time></trkpt>
        <trkpt lat="28.2912901" lon="105.0269407"><ele>548.42</ele><time>2026-05-18T19:19:30.000Z</time></trkpt>
        <trkpt lat="28.2912093" lon="105.0270076"><ele>551.43</ele><time>2026-05-18T19:19:44.000Z</time></trkpt>
        <trkpt lat="28.291121" lon="105.0269947"><ele>553.37</ele><time>2026-05-18T19:20:30.000Z</time></trkpt>
        <trkpt lat="28.2910446" lon="105.0269315"><ele>557.28</ele><time>2026-05-18T19:20:48.000Z</time></trkpt>
        <trkpt lat="28.2909724" lon="105.0269533"><ele>562.25</ele><time>2026-05-18T19:21:14.000Z</time></trkpt>
        <trkpt lat="28.2909219" lon="105.0268912"><ele>567.21</ele><time>2026-05-18T19:21:34.000Z</time></trkpt>
        <trkpt lat="28.2908425" lon="105.0268675"><ele>572.25</ele><time>2026-05-18T19:21:58.000Z</time></trkpt>
        <trkpt lat="28.290747" lon="105.0268714"><ele>577.57</ele><time>2026-05-18T19:22:16.000Z</time></trkpt>
        <trkpt lat="28.2906436" lon="105.0268881"><ele>583.08</ele><time>2026-05-18T19:22:38.000Z</time></trkpt>
        <trkpt lat="28.2905506" lon="105.026932"><ele>589.1</ele><time>2026-05-18T19:22:52.000Z</time></trkpt>
        <trkpt lat="28.2905574" lon="105.0270273"><ele>592.83</ele><time>2026-05-18T19:23:02.000Z</time></trkpt>
        <trkpt lat="28.2905961" lon="105.0271331"><ele>594.74</ele><time>2026-05-18T19:23:14.000Z</time></trkpt>
        <trkpt lat="28.2905859" lon="105.0272408"><ele>596.71</ele><time>2026-05-18T19:23:30.000Z</time></trkpt>
        <trkpt lat="28.2905192" lon="105.0272336"><ele>597.47</ele><time>2026-05-18T19:23:44.000Z</time></trkpt>
        <trkpt lat="28.2904715" lon="105.0271335"><ele>597.78</ele><time>2026-05-18T19:23:58.000Z</time></trkpt>
        <trkpt lat="28.2904036" lon="105.0270401"><ele>597.75</ele><time>2026-05-18T19:24:10.000Z</time></trkpt>
        <trkpt lat="28.2903307" lon="105.0269485"><ele>599.18</ele><time>2026-05-18T19:24:22.000Z</time></trkpt>
        <trkpt lat="28.2902476" lon="105.026888"><ele>599.98</ele><time>2026-05-18T19:24:34.000Z</time></trkpt>
        <trkpt lat="28.2902034" lon="105.0267999"><ele>601.64</ele><time>2026-05-18T19:24:50.000Z</time></trkpt>
        <trkpt lat="28.290171" lon="105.0267041"><ele>603.07</ele><time>2026-05-18T19:25:06.000Z</time></trkpt>
        <trkpt lat="28.2901609" lon="105.0265717"><ele>604.73</ele><time>2026-05-18T19:25:16.000Z</time></trkpt>
        <trkpt lat="28.2901582" lon="105.0264562"><ele>605.93</ele><time>2026-05-18T19:25:24.000Z</time></trkpt>
        <trkpt lat="28.2900954" lon="105.0263896"><ele>609.36</ele><time>2026-05-18T19:25:42.000Z</time></trkpt>
        <trkpt lat="28.2900099" lon="105.026411"><ele>611.52</ele><time>2026-05-18T19:25:54.000Z</time></trkpt>
        <trkpt lat="28.2899141" lon="105.0264652"><ele>614.33</ele><time>2026-05-18T19:26:10.000Z</time></trkpt>
        <trkpt lat="28.2898263" lon="105.0264271"><ele>619.02</ele><time>2026-05-18T19:26:28.000Z</time></trkpt>
        <trkpt lat="28.2897148" lon="105.0263712"><ele>623.65</ele><time>2026-05-18T19:26:36.000Z</time></trkpt>
        <trkpt lat="28.2896162" lon="105.0263199"><ele>628.66</ele><time>2026-05-18T19:26:44.000Z</time></trkpt>
        <trkpt lat="28.2895215" lon="105.0262913"><ele>635.02</ele><time>2026-05-18T19:26:56.000Z</time></trkpt>
        <trkpt lat="28.2894288" lon="105.0262717"><ele>637.79</ele><time>2026-05-18T19:27:08.000Z</time></trkpt>
        <trkpt lat="28.2893341" lon="105.0262544"><ele>638.98</ele><time>2026-05-18T19:27:22.000Z</time></trkpt>
        <trkpt lat="28.2892414" lon="105.026271"><ele>636.7</ele><time>2026-05-18T19:27:32.000Z</time></trkpt>
        <trkpt lat="28.2891558" lon="105.0262472"><ele>635.28</ele><time>2026-05-18T19:27:42.000Z</time></trkpt>
        <trkpt lat="28.2891032" lon="105.0261622"><ele>634.29</ele><time>2026-05-18T19:27:54.000Z</time></trkpt>
        <trkpt lat="28.2890917" lon="105.0261154"><ele>634.61</ele><time>2026-05-18T19:27:58.000Z</time></trkpt>
        <trkpt lat="28.2890776" lon="105.026019"><ele>634.53</ele><time>2026-05-18T19:28:30.000Z</time></trkpt>
        <trkpt lat="28.2890407" lon="105.0259215"><ele>633.8</ele><time>2026-05-18T19:28:38.000Z</time></trkpt>
        <trkpt lat="28.2889813" lon="105.0258313"><ele>633.7</ele><time>2026-05-18T19:28:46.000Z</time></trkpt>
        <trkpt lat="28.2889032" lon="105.025763"><ele>634.95</ele><time>2026-05-18T19:28:54.000Z</time></trkpt>
        <trkpt lat="28.2888291" lon="105.02568"><ele>636.59</ele><time>2026-05-18T19:29:04.000Z</time></trkpt>
        <trkpt lat="28.2887979" lon="105.0256345"><ele>636.87</ele><time>2026-05-18T19:29:08.000Z</time></trkpt>
        <trkpt lat="28.288751" lon="105.02556"><ele>637.13</ele><time>2026-05-18T19:29:20.000Z</time></trkpt>
        <trkpt lat="28.28873" lon="105.0254548"><ele>636.7</ele><time>2026-05-18T19:29:28.000Z</time></trkpt>
        <trkpt lat="28.288769" lon="105.0253558"><ele>637.72</ele><time>2026-05-18T19:29:36.000Z</time></trkpt>
        <trkpt lat="28.2888542" lon="105.0252666"><ele>637.87</ele><time>2026-05-18T19:29:44.000Z</time></trkpt>
        <trkpt lat="28.2889247" lon="105.0251634"><ele>639.3</ele><time>2026-05-18T19:29:54.000Z</time></trkpt>
        <trkpt lat="28.2889447" lon="105.0250531"><ele>641.07</ele><time>2026-05-18T19:30:04.000Z</time></trkpt>
        <trkpt lat="28.2888992" lon="105.0249661"><ele>642.32</ele><time>2026-05-18T19:30:14.000Z</time></trkpt>
        <trkpt lat="28.2888582" lon="105.0248702"><ele>643.85</ele><time>2026-05-18T19:30:22.000Z</time></trkpt>
        <trkpt lat="28.2888052" lon="105.0247633"><ele>644.9</ele><time>2026-05-18T19:30:32.000Z</time></trkpt>
        <trkpt lat="28.2887179" lon="105.0246866"><ele>646.34</ele><time>2026-05-18T19:30:42.000Z</time></trkpt>
        <trkpt lat="28.2886154" lon="105.0246577"><ele>647.15</ele><time>2026-05-18T19:30:50.000Z</time></trkpt>
        <trkpt lat="28.2885083" lon="105.0246572"><ele>648.36</ele><time>2026-05-18T19:30:58.000Z</time></trkpt>
        <trkpt lat="28.2884038" lon="105.0246684"><ele>649.3</ele><time>2026-05-18T19:31:06.000Z</time></trkpt>
        <trkpt lat="28.2883035" lon="105.0246731"><ele>650.31</ele><time>2026-05-18T19:31:16.000Z</time></trkpt>
        <trkpt lat="28.2882009" lon="105.024672"><ele>651.53</ele><time>2026-05-18T19:31:26.000Z</time></trkpt>
        <trkpt lat="28.2881017" lon="105.0246456"><ele>650.49</ele><time>2026-05-18T19:31:36.000Z</time></trkpt>
        <trkpt lat="28.2880584" lon="105.0245505"><ele>649.97</ele><time>2026-05-18T19:31:48.000Z</time></trkpt>
        <trkpt lat="28.2880269" lon="105.0244338"><ele>651.34</ele><time>2026-05-18T19:32:00.000Z</time></trkpt>
        <trkpt lat="28.2879776" lon="105.0243327"><ele>653.5</ele><time>2026-05-18T19:32:16.000Z</time></trkpt>
        <trkpt lat="28.2879053" lon="105.0243538"><ele>655.22</ele><time>2026-05-18T19:32:28.000Z</time></trkpt>
        <trkpt lat="28.2878484" lon="105.0244429"><ele>656.79</ele><time>2026-05-18T19:32:42.000Z</time></trkpt>
        <trkpt lat="28.2877856" lon="105.0245419"><ele>659.78</ele><time>2026-05-18T19:32:54.000Z</time></trkpt>
        <trkpt lat="28.2877248" lon="105.0246407"><ele>662.88</ele><time>2026-05-18T19:33:06.000Z</time></trkpt>
        <trkpt lat="28.2876457" lon="105.0247179"><ele>666.36</ele><time>2026-05-18T19:33:22.000Z</time></trkpt>
        <trkpt lat="28.2875778" lon="105.024795"><ele>668.68</ele><time>2026-05-18T19:33:34.000Z</time></trkpt>
        <trkpt lat="28.2874937" lon="105.0248391"><ele>670.36</ele><time>2026-05-18T19:33:46.000Z</time></trkpt>
        <trkpt lat="28.2874078" lon="105.0248742"><ele>672.63</ele><time>2026-05-18T19:33:56.000Z</time></trkpt>
        <trkpt lat="28.28732" lon="105.0249295"><ele>673.48</ele><time>2026-05-18T19:34:06.000Z</time></trkpt>
        <trkpt lat="28.2872578" lon="105.0250103"><ele>675.55</ele><time>2026-05-18T19:34:18.000Z</time></trkpt>
        <trkpt lat="28.2872265" lon="105.0251217"><ele>677.88</ele><time>2026-05-18T19:34:30.000Z</time></trkpt>
        <trkpt lat="28.2871729" lon="105.0252318"><ele>679.96</ele><time>2026-05-18T19:34:40.000Z</time></trkpt>
        <trkpt lat="28.2870868" lon="105.0252911"><ele>682.31</ele><time>2026-05-18T19:34:48.000Z</time></trkpt>
        <trkpt lat="28.2869834" lon="105.0252799"><ele>683.06</ele><time>2026-05-18T19:34:58.000Z</time></trkpt>
        <trkpt lat="28.2868943" lon="105.0253141"><ele>683.07</ele><time>2026-05-18T19:35:08.000Z</time></trkpt>
        <trkpt lat="28.2868041" lon="105.0253031"><ele>685.56</ele><time>2026-05-18T19:35:26.000Z</time></trkpt>
        <trkpt lat="28.2867066" lon="105.0253065"><ele>689</ele><time>2026-05-18T19:35:44.000Z</time></trkpt>
        <trkpt lat="28.2866132" lon="105.0253116"><ele>691.64</ele><time>2026-05-18T19:36:02.000Z</time></trkpt>
        <trkpt lat="28.2865132" lon="105.025299"><ele>693.86</ele><time>2026-05-18T19:36:18.000Z</time></trkpt>
        <trkpt lat="28.2864239" lon="105.0252588"><ele>695.4</ele><time>2026-05-18T19:36:32.000Z</time></trkpt>
        <trkpt lat="28.2863429" lon="105.0251945"><ele>696.71</ele><time>2026-05-18T19:36:40.000Z</time></trkpt>
        <trkpt lat="28.2862569" lon="105.0251144"><ele>697.64</ele><time>2026-05-18T19:36:48.000Z</time></trkpt>
        <trkpt lat="28.2861804" lon="105.0250227"><ele>697.97</ele><time>2026-05-18T19:36:56.000Z</time></trkpt>
        <trkpt lat="28.2861375" lon="105.0248997"><ele>698.43</ele><time>2026-05-18T19:37:04.000Z</time></trkpt>
        <trkpt lat="28.2861097" lon="105.0247804"><ele>698.99</ele><time>2026-05-18T19:37:12.000Z</time></trkpt>
        <trkpt lat="28.2861306" lon="105.0246678"><ele>698.7</ele><time>2026-05-18T19:37:20.000Z</time></trkpt>
        <trkpt lat="28.2862069" lon="105.0245717"><ele>698.56</ele><time>2026-05-18T19:37:28.000Z</time></trkpt>
        <trkpt lat="28.2862783" lon="105.0244731"><ele>699.29</ele><time>2026-05-18T19:37:36.000Z</time></trkpt>
        <trkpt lat="28.2863306" lon="105.0243677"><ele>699.72</ele><time>2026-05-18T19:37:44.000Z</time></trkpt>
        <trkpt lat="28.2863591" lon="105.0242519"><ele>699.9</ele><time>2026-05-18T19:37:52.000Z</time></trkpt>
        <trkpt lat="28.2863758" lon="105.0241286"><ele>699.57</ele><time>2026-05-18T19:38:00.000Z</time></trkpt>
        <trkpt lat="28.2863674" lon="105.0239995"><ele>698.96</ele><time>2026-05-18T19:38:08.000Z</time></trkpt>
        <trkpt lat="28.2863471" lon="105.0238763"><ele>698.54</ele><time>2026-05-18T19:38:16.000Z</time></trkpt>
        <trkpt lat="28.2863562" lon="105.0237503"><ele>698.03</ele><time>2026-05-18T19:38:24.000Z</time></trkpt>
        <trkpt lat="28.286405" lon="105.0236399"><ele>698.18</ele><time>2026-05-18T19:38:32.000Z</time></trkpt>
        <trkpt lat="28.2864778" lon="105.023538"><ele>697.54</ele><time>2026-05-18T19:38:40.000Z</time></trkpt>
        <trkpt lat="28.2865343" lon="105.0234283"><ele>697.09</ele><time>2026-05-18T19:38:48.000Z</time></trkpt>
        <trkpt lat="28.2865581" lon="105.0233226"><ele>697.34</ele><time>2026-05-18T19:38:56.000Z</time></trkpt>
        <trkpt lat="28.2865638" lon="105.0232074"><ele>697.02</ele><time>2026-05-18T19:39:04.000Z</time></trkpt>
        <trkpt lat="28.2864889" lon="105.0231374"><ele>695.54</ele><time>2026-05-18T19:39:10.000Z</time></trkpt>
        <trkpt lat="28.2863829" lon="105.0230773"><ele>695.03</ele><time>2026-05-18T19:39:18.000Z</time></trkpt>
        <trkpt lat="28.2862715" lon="105.0230386"><ele>694.4</ele><time>2026-05-18T19:39:26.000Z</time></trkpt>
        <trkpt lat="28.2861617" lon="105.022994"><ele>693.9</ele><time>2026-05-18T19:39:34.000Z</time></trkpt>
        <trkpt lat="28.2860514" lon="105.0229495"><ele>692.88</ele><time>2026-05-18T19:39:42.000Z</time></trkpt>
        <trkpt lat="28.2860295" lon="105.0229278"><ele>692.44</ele><time>2026-05-18T19:39:50.000Z</time></trkpt>
        <trkpt lat="28.2861006" lon="105.0229662"><ele>692.26</ele><time>2026-05-18T19:40:00.000Z</time></trkpt>
        <trkpt lat="28.2862121" lon="105.0230236"><ele>692.57</ele><time>2026-05-18T19:40:08.000Z</time></trkpt>
        <trkpt lat="28.2862914" lon="105.0230265"><ele>693.44</ele><time>2026-05-18T19:40:16.000Z</time></trkpt>
        <trkpt lat="28.2862422" lon="105.0230139"><ele>694.21</ele><time>2026-05-18T19:40:34.000Z</time></trkpt>
        <trkpt lat="28.2862065" lon="105.0229711"><ele>694.39</ele><time>2026-05-18T19:40:40.000Z</time></trkpt>
        <trkpt lat="28.2862642" lon="105.0229983"><ele>694.94</ele><time>2026-05-18T19:40:48.000Z</time></trkpt>
        <trkpt lat="28.2863382" lon="105.0230435"><ele>695.41</ele><time>2026-05-18T19:40:54.000Z</time></trkpt>
        <trkpt lat="28.286331" lon="105.0229903"><ele>695.63</ele><time>2026-05-18T19:41:08.000Z</time></trkpt>
        <trkpt lat="28.2862444" lon="105.0229679"><ele>693.06</ele><time>2026-05-18T19:41:14.000Z</time></trkpt>
        <trkpt lat="28.2861281" lon="105.0229317"><ele>692.11</ele><time>2026-05-18T19:41:20.000Z</time></trkpt>
        <trkpt lat="28.2860214" lon="105.0229028"><ele>691.79</ele><time>2026-05-18T19:41:26.000Z</time></trkpt>
        <trkpt lat="28.2859142" lon="105.0228675"><ele>691.74</ele><time>2026-05-18T19:41:34.000Z</time></trkpt>
        <trkpt lat="28.2858249" lon="105.0227996"><ele>691.51</ele><time>2026-05-18T19:41:42.000Z</time></trkpt>
        <trkpt lat="28.285745" lon="105.0227223"><ele>692.44</ele><time>2026-05-18T19:41:50.000Z</time></trkpt>
        <trkpt lat="28.2856717" lon="105.0226294"><ele>693.16</ele><time>2026-05-18T19:41:58.000Z</time></trkpt>
        <trkpt lat="28.2855944" lon="105.0225401"><ele>694.89</ele><time>2026-05-18T19:42:06.000Z</time></trkpt>
        <trkpt lat="28.2855131" lon="105.0224606"><ele>696.85</ele><time>2026-05-18T19:42:14.000Z</time></trkpt>
        <trkpt lat="28.2854246" lon="105.022383"><ele>698.05</ele><time>2026-05-18T19:42:22.000Z</time></trkpt>
        <trkpt lat="28.2853343" lon="105.0223074"><ele>698.38</ele><time>2026-05-18T19:42:30.000Z</time></trkpt>
        <trkpt lat="28.2852846" lon="105.0221971"><ele>698.8</ele><time>2026-05-18T19:42:38.000Z</time></trkpt>
        <trkpt lat="28.2852866" lon="105.0220699"><ele>698.29</ele><time>2026-05-18T19:42:46.000Z</time></trkpt>
        <trkpt lat="28.2853189" lon="105.0219437"><ele>698.01</ele><time>2026-05-18T19:42:54.000Z</time></trkpt>
        <trkpt lat="28.2853405" lon="105.0218146"><ele>699.39</ele><time>2026-05-18T19:43:02.000Z</time></trkpt>
        <trkpt lat="28.2853197" lon="105.0216889"><ele>699.37</ele><time>2026-05-18T19:43:10.000Z</time></trkpt>
        <trkpt lat="28.285292" lon="105.0215644"><ele>699.52</ele><time>2026-05-18T19:43:18.000Z</time></trkpt>
        <trkpt lat="28.2852886" lon="105.0214384"><ele>700.66</ele><time>2026-05-18T19:43:26.000Z</time></trkpt>
        <trkpt lat="28.2852999" lon="105.0213252"><ele>701.87</ele><time>2026-05-18T19:43:34.000Z</time></trkpt>
        <trkpt lat="28.2853246" lon="105.0212095"><ele>703.32</ele><time>2026-05-18T19:43:42.000Z</time></trkpt>
        <trkpt lat="28.2853509" lon="105.0210898"><ele>705.1</ele><time>2026-05-18T19:43:50.000Z</time></trkpt>
        <trkpt lat="28.2853314" lon="105.0209728"><ele>705.69</ele><time>2026-05-18T19:43:58.000Z</time></trkpt>
        <trkpt lat="28.2852655" lon="105.0208775"><ele>704.5</ele><time>2026-05-18T19:44:06.000Z</time></trkpt>
        <trkpt lat="28.2851915" lon="105.02079"><ele>704.49</ele><time>2026-05-18T19:44:14.000Z</time></trkpt>
        <trkpt lat="28.2851686" lon="105.0206772"><ele>704.87</ele><time>2026-05-18T19:44:22.000Z</time></trkpt>
        <trkpt lat="28.285131" lon="105.0205558"><ele>704.57</ele><time>2026-05-18T19:44:30.000Z</time></trkpt>
        <trkpt lat="28.2850642" lon="105.0204533"><ele>704.04</ele><time>2026-05-18T19:44:38.000Z</time></trkpt>
        <trkpt lat="28.2850108" lon="105.0203781"><ele>703.6</ele><time>2026-05-18T19:44:46.000Z</time></trkpt>
        <trkpt lat="28.2850335" lon="105.0204319"><ele>703.63</ele><time>2026-05-18T19:45:06.000Z</time></trkpt>
        <trkpt lat="28.2850295" lon="105.0203663"><ele>703.14</ele><time>2026-05-18T19:45:22.000Z</time></trkpt>
        <trkpt lat="28.285044" lon="105.0202482"><ele>700.77</ele><time>2026-05-18T19:45:30.000Z</time></trkpt>
        <trkpt lat="28.2850917" lon="105.0201428"><ele>698.2</ele><time>2026-05-18T19:45:36.000Z</time></trkpt>
        <trkpt lat="28.2851722" lon="105.0200755"><ele>696.56</ele><time>2026-05-18T19:45:42.000Z</time></trkpt>
        <trkpt lat="28.2852607" lon="105.0200271"><ele>694.99</ele><time>2026-05-18T19:45:48.000Z</time></trkpt>
        <trkpt lat="28.2853426" lon="105.0199708"><ele>693.13</ele><time>2026-05-18T19:45:54.000Z</time></trkpt>
        <trkpt lat="28.2853892" lon="105.0198853"><ele>691.16</ele><time>2026-05-18T19:46:02.000Z</time></trkpt>
        <trkpt lat="28.285399" lon="105.0197609"><ele>689.4</ele><time>2026-05-18T19:46:10.000Z</time></trkpt>
        <trkpt lat="28.2854646" lon="105.0197674"><ele>687.31</ele><time>2026-05-18T19:46:26.000Z</time></trkpt>
        <trkpt lat="28.2855202" lon="105.0198561"><ele>685.3</ele><time>2026-05-18T19:46:32.000Z</time></trkpt>
        <trkpt lat="28.2856046" lon="105.0198713"><ele>683.64</ele><time>2026-05-18T19:46:38.000Z</time></trkpt>
        <trkpt lat="28.2856603" lon="105.0198015"><ele>681.45</ele><time>2026-05-18T19:46:44.000Z</time></trkpt>
        <trkpt lat="28.2856358" lon="105.0196919"><ele>679.58</ele><time>2026-05-18T19:46:52.000Z</time></trkpt>
        <trkpt lat="28.2855734" lon="105.0195739"><ele>677.74</ele><time>2026-05-18T19:47:00.000Z</time></trkpt>
        <trkpt lat="28.2855046" lon="105.019479"><ele>675.39</ele><time>2026-05-18T19:47:06.000Z</time></trkpt>
        <trkpt lat="28.2854541" lon="105.0193799"><ele>673.07</ele><time>2026-05-18T19:47:12.000Z</time></trkpt>
        <trkpt lat="28.2854371" lon="105.0192998"><ele>671.62</ele><time>2026-05-18T19:47:18.000Z</time></trkpt>
        <trkpt lat="28.2854499" lon="105.0193677"><ele>671.19</ele><time>2026-05-18T19:47:24.000Z</time></trkpt>
        <trkpt lat="28.2855015" lon="105.0194673"><ele>670.89</ele><time>2026-05-18T19:47:32.000Z</time></trkpt>
        <trkpt lat="28.2855962" lon="105.0195182"><ele>671.29</ele><time>2026-05-18T19:47:50.000Z</time></trkpt>
        <trkpt lat="28.2856805" lon="105.0194827"><ele>670.23</ele><time>2026-05-18T19:47:56.000Z</time></trkpt>
        <trkpt lat="28.2857656" lon="105.0194104"><ele>669.53</ele><time>2026-05-18T19:48:04.000Z</time></trkpt>
        <trkpt lat="28.285849" lon="105.0193197"><ele>667.72</ele><time>2026-05-18T19:48:12.000Z</time></trkpt>
        <trkpt lat="28.2859125" lon="105.0192213"><ele>664.94</ele><time>2026-05-18T19:48:20.000Z</time></trkpt>
        <trkpt lat="28.2859754" lon="105.0191155"><ele>662.9</ele><time>2026-05-18T19:48:30.000Z</time></trkpt>
        <trkpt lat="28.2860459" lon="105.0190413"><ele>660.8</ele><time>2026-05-18T19:48:40.000Z</time></trkpt>
        <trkpt lat="28.2861309" lon="105.0189926"><ele>658.48</ele><time>2026-05-18T19:48:50.000Z</time></trkpt>
        <trkpt lat="28.2862259" lon="105.0189574"><ele>655</ele><time>2026-05-18T19:49:02.000Z</time></trkpt>
        <trkpt lat="28.286332" lon="105.0189344"><ele>652.27</ele><time>2026-05-18T19:49:12.000Z</time></trkpt>
        <trkpt lat="28.286434" lon="105.0189234"><ele>649.82</ele><time>2026-05-18T19:49:22.000Z</time></trkpt>
        <trkpt lat="28.2865351" lon="105.0189289"><ele>647.72</ele><time>2026-05-18T19:49:34.000Z</time></trkpt>
        <trkpt lat="28.286598" lon="105.0190004"><ele>645.8</ele><time>2026-05-18T19:49:48.000Z</time></trkpt>
        <trkpt lat="28.2866652" lon="105.018962"><ele>644.16</ele><time>2026-05-18T19:50:16.000Z</time></trkpt>
        <trkpt lat="28.2867085" lon="105.0189119"><ele>641.26</ele><time>2026-05-18T19:50:24.000Z</time></trkpt>
        <trkpt lat="28.2867984" lon="105.0188573"><ele>638.97</ele><time>2026-05-18T19:50:38.000Z</time></trkpt>
        <trkpt lat="28.2868921" lon="105.0187842"><ele>635.68</ele><time>2026-05-18T19:50:46.000Z</time></trkpt>
        <trkpt lat="28.2869756" lon="105.018687"><ele>631.83</ele><time>2026-05-18T19:50:54.000Z</time></trkpt>
        <trkpt lat="28.2870598" lon="105.0186025"><ele>628.52</ele><time>2026-05-18T19:51:02.000Z</time></trkpt>
        <trkpt lat="28.2871441" lon="105.0185361"><ele>627.05</ele><time>2026-05-18T19:51:10.000Z</time></trkpt>
        <trkpt lat="28.2872299" lon="105.0184816"><ele>625.95</ele><time>2026-05-18T19:51:16.000Z</time></trkpt>
        <trkpt lat="28.2872973" lon="105.0184134"><ele>626.04</ele><time>2026-05-18T19:51:24.000Z</time></trkpt>
        <trkpt lat="28.2873841" lon="105.0183694"><ele>625.35</ele><time>2026-05-18T19:51:34.000Z</time></trkpt>
        <trkpt lat="28.2874887" lon="105.0183683"><ele>623.64</ele><time>2026-05-18T19:51:42.000Z</time></trkpt>
        <trkpt lat="28.2875523" lon="105.0183897"><ele>620.15</ele><time>2026-05-18T19:51:48.000Z</time></trkpt>
        <trkpt lat="28.2876207" lon="105.0184587"><ele>617.32</ele><time>2026-05-18T19:52:10.000Z</time></trkpt>
        <trkpt lat="28.2876971" lon="105.0184508"><ele>611.69</ele><time>2026-05-18T19:52:18.000Z</time></trkpt>
        <trkpt lat="28.2877931" lon="105.018398"><ele>607.07</ele><time>2026-05-18T19:52:26.000Z</time></trkpt>
        <trkpt lat="28.287888" lon="105.0184132"><ele>603.38</ele><time>2026-05-18T19:52:34.000Z</time></trkpt>
        <trkpt lat="28.2879669" lon="105.018361"><ele>601.14</ele><time>2026-05-18T19:52:40.000Z</time></trkpt>
        <trkpt lat="28.2880285" lon="105.0182794"><ele>599.09</ele><time>2026-05-18T19:52:46.000Z</time></trkpt>
        <trkpt lat="28.2880799" lon="105.018169"><ele>597.62</ele><time>2026-05-18T19:52:54.000Z</time></trkpt>
        <trkpt lat="28.2881158" lon="105.018041"><ele>596.04</ele><time>2026-05-18T19:53:02.000Z</time></trkpt>
        <trkpt lat="28.2881081" lon="105.0179078"><ele>594.92</ele><time>2026-05-18T19:53:08.000Z</time></trkpt>
        <trkpt lat="28.2880744" lon="105.0177842"><ele>594.22</ele><time>2026-05-18T19:53:14.000Z</time></trkpt>
        <trkpt lat="28.2880198" lon="105.0176691"><ele>593.34</ele><time>2026-05-18T19:53:22.000Z</time></trkpt>
        <trkpt lat="28.2879543" lon="105.0175764"><ele>592.13</ele><time>2026-05-18T19:53:28.000Z</time></trkpt>
        <trkpt lat="28.2878775" lon="105.0175055"><ele>590.95</ele><time>2026-05-18T19:53:34.000Z</time></trkpt>
        <trkpt lat="28.2877651" lon="105.0174935"><ele>590.14</ele><time>2026-05-18T19:53:42.000Z</time></trkpt>
        <trkpt lat="28.2876603" lon="105.0175074"><ele>591.42</ele><time>2026-05-18T19:53:48.000Z</time></trkpt>
        <trkpt lat="28.2875588" lon="105.0175507"><ele>592.65</ele><time>2026-05-18T19:53:54.000Z</time></trkpt>
        <trkpt lat="28.2874608" lon="105.0175805"><ele>593.04</ele><time>2026-05-18T19:54:00.000Z</time></trkpt>
        <trkpt lat="28.2873546" lon="105.017596"><ele>593.58</ele><time>2026-05-18T19:54:08.000Z</time></trkpt>
        <trkpt lat="28.2872483" lon="105.0175872"><ele>593.84</ele><time>2026-05-18T19:54:16.000Z</time></trkpt>
        <trkpt lat="28.287146" lon="105.0175553"><ele>594.03</ele><time>2026-05-18T19:54:24.000Z</time></trkpt>
        <trkpt lat="28.287041" lon="105.0175159"><ele>594.06</ele><time>2026-05-18T19:54:32.000Z</time></trkpt>
        <trkpt lat="28.2869368" lon="105.0174674"><ele>593.24</ele><time>2026-05-18T19:54:40.000Z</time></trkpt>
        <trkpt lat="28.286823" lon="105.0174596"><ele>592.23</ele><time>2026-05-18T19:54:48.000Z</time></trkpt>
        <trkpt lat="28.2867131" lon="105.0174521"><ele>591.38</ele><time>2026-05-18T19:54:54.000Z</time></trkpt>
        <trkpt lat="28.2866121" lon="105.0174303"><ele>589.07</ele><time>2026-05-18T19:55:00.000Z</time></trkpt>
        <trkpt lat="28.2865389" lon="105.0173656"><ele>586.62</ele><time>2026-05-18T19:55:06.000Z</time></trkpt>
        <trkpt lat="28.2864878" lon="105.0172794"><ele>584.98</ele><time>2026-05-18T19:55:12.000Z</time></trkpt>
        <trkpt lat="28.2864234" lon="105.0171963"><ele>583.9</ele><time>2026-05-18T19:55:18.000Z</time></trkpt>
        <trkpt lat="28.286344" lon="105.0171162"><ele>581.9</ele><time>2026-05-18T19:55:26.000Z</time></trkpt>
        <trkpt lat="28.2862491" lon="105.0170534"><ele>580.95</ele><time>2026-05-18T19:55:34.000Z</time></trkpt>
        <trkpt lat="28.2861538" lon="105.0170148"><ele>581.54</ele><time>2026-05-18T19:55:40.000Z</time></trkpt>
        <trkpt lat="28.2860563" lon="105.016987"><ele>582.49</ele><time>2026-05-18T19:55:46.000Z</time></trkpt>
        <trkpt lat="28.285945" lon="105.0169731"><ele>583.4</ele><time>2026-05-18T19:55:54.000Z</time></trkpt>
        <trkpt lat="28.2858416" lon="105.0169925"><ele>583.8</ele><time>2026-05-18T19:56:00.000Z</time></trkpt>
        <trkpt lat="28.2857418" lon="105.0170203"><ele>583.81</ele><time>2026-05-18T19:56:06.000Z</time></trkpt>
        <trkpt lat="28.2856421" lon="105.0170175"><ele>583.29</ele><time>2026-05-18T19:56:12.000Z</time></trkpt>
        <trkpt lat="28.2855709" lon="105.0170798"><ele>582.78</ele><time>2026-05-18T19:56:24.000Z</time></trkpt>
        <trkpt lat="28.2855973" lon="105.0171413"><ele>582.35</ele><time>2026-05-18T19:56:32.000Z</time></trkpt>
        <trkpt lat="28.2855712" lon="105.0172292"><ele>581.95</ele><time>2026-05-18T19:57:04.000Z</time></trkpt>
        <trkpt lat="28.2855391" lon="105.0173399"><ele>575.79</ele><time>2026-05-18T19:57:14.000Z</time></trkpt>
        <trkpt lat="28.2855362" lon="105.0173205"><ele>572.2</ele><time>2026-05-18T19:57:32.000Z</time></trkpt>
        <trkpt lat="28.2855721" lon="105.0172101"><ele>565.43</ele><time>2026-05-18T19:57:46.000Z</time></trkpt>
        <trkpt lat="28.2856111" lon="105.0172494"><ele>563.71</ele><time>2026-05-18T19:58:10.000Z</time></trkpt>
        <trkpt lat="28.2850454" lon="105.0177078"><ele>565.66</ele><time>2026-05-18T19:59:36.000Z</time></trkpt>
        <trkpt lat="28.2850326" lon="105.0175834"><ele>571.07</ele><time>2026-05-18T19:59:39.000Z</time></trkpt>
        <trkpt lat="28.2850872" lon="105.0174819"><ele>574.14</ele><time>2026-05-18T20:01:59.000Z</time></trkpt>
        <trkpt lat="28.2851726" lon="105.0174286"><ele>581.99</ele><time>2026-05-18T20:02:09.000Z</time></trkpt>
        <trkpt lat="28.2852563" lon="105.0173138"><ele>585.76</ele><time>2026-05-18T20:33:05.000Z</time></trkpt>
        <trkpt lat="28.2853501" lon="105.0172697"><ele>587.77</ele><time>2026-05-18T20:33:09.000Z</time></trkpt>
        <trkpt lat="28.2854273" lon="105.0171064"><ele>589.97</ele><time>2026-05-18T20:33:13.000Z</time></trkpt>
        <trkpt lat="28.2854796" lon="105.0169851"><ele>584.89</ele><time>2026-05-18T20:33:17.000Z</time></trkpt>
        <trkpt lat="28.2855594" lon="105.0170146"><ele>578.27</ele><time>2026-05-18T20:33:25.000Z</time></trkpt>
        <trkpt lat="28.2856148" lon="105.0171061"><ele>572.43</ele><time>2026-05-18T20:33:31.000Z</time></trkpt>
        <trkpt lat="28.2856155" lon="105.0171424"><ele>570.26</ele><time>2026-05-18T20:33:39.000Z</time></trkpt>
        <trkpt lat="28.285571" lon="105.0172626"><ele>569.36</ele><time>2026-05-18T20:34:43.000Z</time></trkpt>
        <trkpt lat="28.2855144" lon="105.0173609"><ele>567.9</ele><time>2026-05-18T20:34:53.000Z</time></trkpt>
        <trkpt lat="28.285643" lon="105.0167644"><ele>566.53</ele><time>2026-05-18T20:35:15.000Z</time></trkpt>
        <trkpt lat="28.2856211" lon="105.0167259"><ele>572.75</ele><time>2026-05-18T20:35:18.000Z</time></trkpt>
        <trkpt lat="28.2856309" lon="105.0168157"><ele>579.2</ele><time>2026-05-18T20:35:22.000Z</time></trkpt>
        <trkpt lat="28.2856886" lon="105.0169194"><ele>577.32</ele><time>2026-05-18T20:35:28.000Z</time></trkpt>
        <trkpt lat="28.2857306" lon="105.0169953"><ele>575.08</ele><time>2026-05-18T20:35:34.000Z</time></trkpt>
        <trkpt lat="28.2856586" lon="105.0170005"><ele>572.7</ele><time>2026-05-18T20:35:42.000Z</time></trkpt>
        <trkpt lat="28.2855525" lon="105.0169595"><ele>572.39</ele><time>2026-05-18T20:35:50.000Z</time></trkpt>
        <trkpt lat="28.2854591" lon="105.0168691"><ele>571.56</ele><time>2026-05-18T20:35:58.000Z</time></trkpt>
        <trkpt lat="28.2853941" lon="105.016753"><ele>569.9</ele><time>2026-05-18T20:36:06.000Z</time></trkpt>
        <trkpt lat="28.2853516" lon="105.0166734"><ele>568.38</ele><time>2026-05-18T20:36:12.000Z</time></trkpt>
        <trkpt lat="28.2853907" lon="105.0167462"><ele>567.4</ele><time>2026-05-18T20:36:20.000Z</time></trkpt>
        <trkpt lat="28.2854412" lon="105.0168558"><ele>567.15</ele><time>2026-05-18T20:36:26.000Z</time></trkpt>
        <trkpt lat="28.2855093" lon="105.0169624"><ele>567.69</ele><time>2026-05-18T20:36:34.000Z</time></trkpt>
        <trkpt lat="28.2855967" lon="105.0170443"><ele>568.35</ele><time>2026-05-18T20:36:42.000Z</time></trkpt>
        <trkpt lat="28.2856957" lon="105.0170756"><ele>568.6</ele><time>2026-05-18T20:36:50.000Z</time></trkpt>
        <trkpt lat="28.2857953" lon="105.0170673"><ele>569.08</ele><time>2026-05-18T20:36:58.000Z</time></trkpt>
        <trkpt lat="28.2859004" lon="105.017026"><ele>569.61</ele><time>2026-05-18T20:37:08.000Z</time></trkpt>
        <trkpt lat="28.2859995" lon="105.0170009"><ele>570.57</ele><time>2026-05-18T20:37:16.000Z</time></trkpt>
        <trkpt lat="28.2861127" lon="105.0170023"><ele>571.56</ele><time>2026-05-18T20:37:24.000Z</time></trkpt>
        <trkpt lat="28.286224" lon="105.0170369"><ele>572.96</ele><time>2026-05-18T20:37:32.000Z</time></trkpt>
        <trkpt lat="28.2863246" lon="105.0170942"><ele>574.06</ele><time>2026-05-18T20:37:40.000Z</time></trkpt>
        <trkpt lat="28.2864148" lon="105.0171664"><ele>574.95</ele><time>2026-05-18T20:37:48.000Z</time></trkpt>
        <trkpt lat="28.2864879" lon="105.0172589"><ele>575.47</ele><time>2026-05-18T20:37:56.000Z</time></trkpt>
        <trkpt lat="28.2865469" lon="105.0173634"><ele>576.6</ele><time>2026-05-18T20:38:04.000Z</time></trkpt>
        <trkpt lat="28.2866243" lon="105.0174544"><ele>577.87</ele><time>2026-05-18T20:38:12.000Z</time></trkpt>
        <trkpt lat="28.2867182" lon="105.0174907"><ele>578.06</ele><time>2026-05-18T20:38:18.000Z</time></trkpt>
        <trkpt lat="28.2868245" lon="105.017501"><ele>579.04</ele><time>2026-05-18T20:38:26.000Z</time></trkpt>
        <trkpt lat="28.2869343" lon="105.0174914"><ele>580.43</ele><time>2026-05-18T20:38:34.000Z</time></trkpt>
        <trkpt lat="28.2870479" lon="105.017493"><ele>582</ele><time>2026-05-18T20:38:42.000Z</time></trkpt>
        <trkpt lat="28.2871392" lon="105.017528"><ele>583.02</ele><time>2026-05-18T20:38:48.000Z</time></trkpt>
        <trkpt lat="28.2872405" lon="105.0175736"><ele>584.36</ele><time>2026-05-18T20:38:56.000Z</time></trkpt>
        <trkpt lat="28.2873526" lon="105.0176119"><ele>584.67</ele><time>2026-05-18T20:39:04.000Z</time></trkpt>
        <trkpt lat="28.2874494" lon="105.0176196"><ele>586.48</ele><time>2026-05-18T20:39:10.000Z</time></trkpt>
        <trkpt lat="28.2874931" lon="105.0176021"><ele>588.09</ele><time>2026-05-18T20:39:16.000Z</time></trkpt>
        <trkpt lat="28.2875687" lon="105.0175894"><ele>589.05</ele><time>2026-05-18T20:40:06.000Z</time></trkpt>
        <trkpt lat="28.2876645" lon="105.0175628"><ele>591.7</ele><time>2026-05-18T20:40:18.000Z</time></trkpt>
        <trkpt lat="28.2877658" lon="105.0175345"><ele>593.5</ele><time>2026-05-18T20:40:27.000Z</time></trkpt>
        <trkpt lat="28.2878103" lon="105.0175161"><ele>594.45</ele><time>2026-05-18T20:40:33.000Z</time></trkpt>
        <trkpt lat="28.287902" lon="105.0175307"><ele>595.1</ele><time>2026-05-18T20:42:00.000Z</time></trkpt>
        <trkpt lat="28.2879596" lon="105.0176232"><ele>596.66</ele><time>2026-05-18T20:42:08.000Z</time></trkpt>
        <trkpt lat="28.2880204" lon="105.0177167"><ele>597.48</ele><time>2026-05-18T20:42:16.000Z</time></trkpt>
        <trkpt lat="28.2880781" lon="105.0178268"><ele>597.58</ele><time>2026-05-18T20:42:24.000Z</time></trkpt>
        <trkpt lat="28.2881007" lon="105.0179508"><ele>597.6</ele><time>2026-05-18T20:42:32.000Z</time></trkpt>
        <trkpt lat="28.2880987" lon="105.0180754"><ele>597.32</ele><time>2026-05-18T20:42:40.000Z</time></trkpt>
        <trkpt lat="28.2880752" lon="105.0182068"><ele>596.86</ele><time>2026-05-18T20:42:48.000Z</time></trkpt>
        <trkpt lat="28.2880204" lon="105.0183195"><ele>596.35</ele><time>2026-05-18T20:42:56.000Z</time></trkpt>
        <trkpt lat="28.2879342" lon="105.0184057"><ele>596.11</ele><time>2026-05-18T20:43:04.000Z</time></trkpt>
        <trkpt lat="28.2878431" lon="105.0184561"><ele>595.95</ele><time>2026-05-18T20:43:10.000Z</time></trkpt>
        <trkpt lat="28.2877618" lon="105.01851"><ele>595.02</ele><time>2026-05-18T20:43:16.000Z</time></trkpt>
        <trkpt lat="28.2876732" lon="105.0185481"><ele>594.07</ele><time>2026-05-18T20:43:22.000Z</time></trkpt>
        <trkpt lat="28.2877215" lon="105.0185144"><ele>593.16</ele><time>2026-05-18T20:43:34.000Z</time></trkpt>
        <trkpt lat="28.2878036" lon="105.0184395"><ele>593.42</ele><time>2026-05-18T20:43:40.000Z</time></trkpt>
        <trkpt lat="28.2877608" lon="105.0184029"><ele>594.1</ele><time>2026-05-18T20:43:56.000Z</time></trkpt>
        <trkpt lat="28.2876706" lon="105.0184271"><ele>594.93</ele><time>2026-05-18T20:44:08.000Z</time></trkpt>
        <trkpt lat="28.2875654" lon="105.0184261"><ele>595.75</ele><time>2026-05-18T20:44:20.000Z</time></trkpt>
        <trkpt lat="28.2874884" lon="105.0183588"><ele>596.43</ele><time>2026-05-18T20:44:44.000Z</time></trkpt>
        <trkpt lat="28.2873976" lon="105.0183328"><ele>598.94</ele><time>2026-05-18T20:45:02.000Z</time></trkpt>
        <trkpt lat="28.2873044" lon="105.0183505"><ele>602.66</ele><time>2026-05-18T20:45:22.000Z</time></trkpt>
        <trkpt lat="28.2872167" lon="105.0184046"><ele>605.19</ele><time>2026-05-18T20:45:38.000Z</time></trkpt>
        <trkpt lat="28.2871322" lon="105.0184773"><ele>608.59</ele><time>2026-05-18T20:45:50.000Z</time></trkpt>
        <trkpt lat="28.287066" lon="105.0185587"><ele>611.29</ele><time>2026-05-18T20:45:58.000Z</time></trkpt>
        <trkpt lat="28.2870046" lon="105.0186435"><ele>612.97</ele><time>2026-05-18T20:46:06.000Z</time></trkpt>
        <trkpt lat="28.2869352" lon="105.0187378"><ele>614.63</ele><time>2026-05-18T20:46:14.000Z</time></trkpt>
        <trkpt lat="28.2868514" lon="105.018801"><ele>616.45</ele><time>2026-05-18T20:46:22.000Z</time></trkpt>
        <trkpt lat="28.2867619" lon="105.0188499"><ele>618.83</ele><time>2026-05-18T20:46:32.000Z</time></trkpt>
        <trkpt lat="28.2867375" lon="105.0188623"><ele>622.92</ele><time>2026-05-18T20:46:34.000Z</time></trkpt>
        <trkpt lat="28.2866588" lon="105.0188699"><ele>625.46</ele><time>2026-05-18T20:46:52.000Z</time></trkpt>
        <trkpt lat="28.286602" lon="105.0189407"><ele>627.76</ele><time>2026-05-18T20:47:00.000Z</time></trkpt>
        <trkpt lat="28.2865616" lon="105.019045"><ele>629.66</ele><time>2026-05-18T20:47:08.000Z</time></trkpt>
        <trkpt lat="28.2865588" lon="105.0189994"><ele>632.01</ele><time>2026-05-18T20:47:28.000Z</time></trkpt>
        <trkpt lat="28.2865161" lon="105.0189192"><ele>633.59</ele><time>2026-05-18T20:47:46.000Z</time></trkpt>
        <trkpt lat="28.2864345" lon="105.0188987"><ele>633.55</ele><time>2026-05-18T20:48:00.000Z</time></trkpt>
        <trkpt lat="28.2863453" lon="105.0189274"><ele>635.03</ele><time>2026-05-18T20:48:14.000Z</time></trkpt>
        <trkpt lat="28.286241" lon="105.0189576"><ele>639.22</ele><time>2026-05-18T20:48:30.000Z</time></trkpt>
        <trkpt lat="28.2861443" lon="105.0189884"><ele>641.08</ele><time>2026-05-18T20:48:46.000Z</time></trkpt>
        <trkpt lat="28.2860514" lon="105.0190169"><ele>644.89</ele><time>2026-05-18T20:49:04.000Z</time></trkpt>
        <trkpt lat="28.2859815" lon="105.0190825"><ele>648.27</ele><time>2026-05-18T20:49:20.000Z</time></trkpt>
        <trkpt lat="28.2859163" lon="105.0191663"><ele>651.75</ele><time>2026-05-18T20:49:38.000Z</time></trkpt>
        <trkpt lat="28.2858415" lon="105.0192456"><ele>655.85</ele><time>2026-05-18T20:49:50.000Z</time></trkpt>
        <trkpt lat="28.2857811" lon="105.0193316"><ele>657.69</ele><time>2026-05-18T20:50:00.000Z</time></trkpt>
        <trkpt lat="28.2857076" lon="105.0194135"><ele>658.78</ele><time>2026-05-18T20:50:12.000Z</time></trkpt>
        <trkpt lat="28.2856245" lon="105.0194953"><ele>660.11</ele><time>2026-05-18T20:50:24.000Z</time></trkpt>
        <trkpt lat="28.2855338" lon="105.0195239"><ele>662.59</ele><time>2026-05-18T20:50:32.000Z</time></trkpt>
        <trkpt lat="28.2855215" lon="105.019603"><ele>665.08</ele><time>2026-05-18T20:50:44.000Z</time></trkpt>
        <trkpt lat="28.2855555" lon="105.0197171"><ele>668.59</ele><time>2026-05-18T20:50:52.000Z</time></trkpt>
        <trkpt lat="28.2856353" lon="105.0198117"><ele>673.23</ele><time>2026-05-18T20:50:58.000Z</time></trkpt>
        <trkpt lat="28.2856477" lon="105.0199221"><ele>678.35</ele><time>2026-05-18T20:51:14.000Z</time></trkpt>
        <trkpt lat="28.2855835" lon="105.019976"><ele>681.97</ele><time>2026-05-18T20:51:26.000Z</time></trkpt>
        <trkpt lat="28.2855176" lon="105.0199115"><ele>685.51</ele><time>2026-05-18T20:51:34.000Z</time></trkpt>
        <trkpt lat="28.2854576" lon="105.0198087"><ele>686.93</ele><time>2026-05-18T20:51:46.000Z</time></trkpt>
        <trkpt lat="28.285398" lon="105.0198424"><ele>687.88</ele><time>2026-05-18T20:51:56.000Z</time></trkpt>
        <trkpt lat="28.2853793" lon="105.0199424"><ele>689.05</ele><time>2026-05-18T20:52:04.000Z</time></trkpt>
        <trkpt lat="28.2853344" lon="105.0200376"><ele>690.15</ele><time>2026-05-18T20:52:14.000Z</time></trkpt>
        <trkpt lat="28.2852544" lon="105.0201002"><ele>691.58</ele><time>2026-05-18T20:52:26.000Z</time></trkpt>
        <trkpt lat="28.2851577" lon="105.0201516"><ele>692.53</ele><time>2026-05-18T20:52:38.000Z</time></trkpt>
        <trkpt lat="28.2850579" lon="105.0201459"><ele>695.4</ele><time>2026-05-18T20:52:48.000Z</time></trkpt>
        <trkpt lat="28.2849713" lon="105.0201814"><ele>698.62</ele><time>2026-05-18T20:53:00.000Z</time></trkpt>
        <trkpt lat="28.2848835" lon="105.020233"><ele>701.25</ele><time>2026-05-18T20:54:00.000Z</time></trkpt>
        <trkpt lat="28.2848172" lon="105.0203024"><ele>701.96</ele><time>2026-05-18T20:54:16.000Z</time></trkpt>
        <trkpt lat="28.2847624" lon="105.0203911"><ele>702.57</ele><time>2026-05-18T20:54:44.000Z</time></trkpt>
        <trkpt lat="28.2847145" lon="105.0204796"><ele>704.38</ele><time>2026-05-18T20:55:36.000Z</time></trkpt>
        <trkpt lat="28.2846423" lon="105.0205496"><ele>711.7</ele><time>2026-05-18T20:56:06.000Z</time></trkpt>
        <trkpt lat="28.284566" lon="105.0206266"><ele>718.03</ele><time>2026-05-18T20:57:12.000Z</time></trkpt>
        <trkpt lat="28.2844709" lon="105.0206384"><ele>725.29</ele><time>2026-05-18T20:58:02.000Z</time></trkpt>
        <trkpt lat="28.2844038" lon="105.0207043"><ele>732.43</ele><time>2026-05-18T20:58:30.000Z</time></trkpt>
        <trkpt lat="28.2843745" lon="105.0208088"><ele>738.66</ele><time>2026-05-18T21:00:58.000Z</time></trkpt>
        <trkpt lat="28.2843066" lon="105.0208978"><ele>747.2</ele><time>2026-05-18T21:02:12.000Z</time></trkpt>
        <trkpt lat="28.2842193" lon="105.0209482"><ele>752.56</ele><time>2026-05-18T21:02:32.000Z</time></trkpt>
        <trkpt lat="28.2841312" lon="105.0209321"><ele>758.41</ele><time>2026-05-18T21:02:54.000Z</time></trkpt>
        <trkpt lat="28.2841147" lon="105.021006"><ele>765.11</ele><time>2026-05-18T21:03:36.000Z</time></trkpt>
        <trkpt lat="28.2840427" lon="105.0210254"><ele>771.75</ele><time>2026-05-18T21:04:20.000Z</time></trkpt>
        <trkpt lat="28.2839942" lon="105.0211006"><ele>780.03</ele><time>2026-05-18T21:05:08.000Z</time></trkpt>
        <trkpt lat="28.2840247" lon="105.0211887"><ele>789.75</ele><time>2026-05-18T21:05:28.000Z</time></trkpt>
        <trkpt lat="28.2840765" lon="105.0212858"><ele>796.27</ele><time>2026-05-18T21:05:46.000Z</time></trkpt>
        <trkpt lat="28.2840127" lon="105.0213434"><ele>800.74</ele><time>2026-05-18T21:06:48.000Z</time></trkpt>
        <trkpt lat="28.2840395" lon="105.0214521"><ele>809.67</ele><time>2026-05-18T21:07:20.000Z</time></trkpt>
        <trkpt lat="28.2839865" lon="105.0215484"><ele>817.03</ele><time>2026-05-18T21:07:54.000Z</time></trkpt>
        <trkpt lat="28.2839578" lon="105.0215931"><ele>822.72</ele><time>2026-05-18T21:08:04.000Z</time></trkpt>
        <trkpt lat="28.2840132" lon="105.021633"><ele>827.09</ele><time>2026-05-18T21:08:32.000Z</time></trkpt>
        <trkpt lat="28.2839965" lon="105.0217045"><ele>829.78</ele><time>2026-05-18T21:09:04.000Z</time></trkpt>
        <trkpt lat="28.2839286" lon="105.0217784"><ele>835.43</ele><time>2026-05-18T21:09:20.000Z</time></trkpt>
        <trkpt lat="28.2838878" lon="105.021873"><ele>840.27</ele><time>2026-05-18T21:10:12.000Z</time></trkpt>
        <trkpt lat="28.2839021" lon="105.0219747"><ele>844.21</ele><time>2026-05-18T21:10:42.000Z</time></trkpt>
        <trkpt lat="28.2838597" lon="105.0220556"><ele>850.57</ele><time>2026-05-18T21:11:02.000Z</time></trkpt>
        <trkpt lat="28.28383" lon="105.0221498"><ele>854.18</ele><time>2026-05-18T21:11:38.000Z</time></trkpt>
        <trkpt lat="28.2838477" lon="105.0222525"><ele>858.57</ele><time>2026-05-18T21:12:06.000Z</time></trkpt>
        <trkpt lat="28.2837911" lon="105.0223135"><ele>863.71</ele><time>2026-05-18T21:12:34.000Z</time></trkpt>
        <trkpt lat="28.2838392" lon="105.0223246"><ele>871.88</ele><time>2026-05-18T21:13:26.000Z</time></trkpt>
        <trkpt lat="28.2838726" lon="105.0223974"><ele>882.55</ele><time>2026-05-18T21:13:46.000Z</time></trkpt>
        <trkpt lat="28.2838192" lon="105.0224496"><ele>887.23</ele><time>2026-05-18T21:14:18.000Z</time></trkpt>
        <trkpt lat="28.2838653" lon="105.0225115"><ele>894.34</ele><time>2026-05-18T21:15:20.000Z</time></trkpt>
        <trkpt lat="28.2839083" lon="105.0226039"><ele>903.06</ele><time>2026-05-18T21:15:48.000Z</time></trkpt>
        <trkpt lat="28.2838328" lon="105.0226626"><ele>908.13</ele><time>2026-05-18T21:17:26.000Z</time></trkpt>
        <trkpt lat="28.2837307" lon="105.0226435"><ele>911.34</ele><time>2026-05-18T21:17:42.000Z</time></trkpt>
        <trkpt lat="28.2837316" lon="105.0227277"><ele>913.8</ele><time>2026-05-18T21:18:34.000Z</time></trkpt>
        <trkpt lat="28.2837168" lon="105.0228269"><ele>920.48</ele><time>2026-05-18T21:19:18.000Z</time></trkpt>
        <trkpt lat="28.2836732" lon="105.0229188"><ele>927.35</ele><time>2026-05-18T21:19:48.000Z</time></trkpt>
        <trkpt lat="28.2836369" lon="105.0230215"><ele>932.08</ele><time>2026-05-18T21:20:04.000Z</time></trkpt>
        <trkpt lat="28.2836129" lon="105.0231252"><ele>936.75</ele><time>2026-05-18T21:20:58.000Z</time></trkpt>
        <trkpt lat="28.2836127" lon="105.0232351"><ele>941.21</ele><time>2026-05-18T21:21:12.000Z</time></trkpt>
        <trkpt lat="28.2836088" lon="105.0233493"><ele>944.82</ele><time>2026-05-18T21:21:28.000Z</time></trkpt>
        <trkpt lat="28.2836017" lon="105.0234622"><ele>946.87</ele><time>2026-05-18T21:21:36.000Z</time></trkpt>
        <trkpt lat="28.2835907" lon="105.0235846"><ele>947.99</ele><time>2026-05-18T21:21:44.000Z</time></trkpt>
        <trkpt lat="28.283523" lon="105.0236383"><ele>949.63</ele><time>2026-05-18T21:21:56.000Z</time></trkpt>
        <trkpt lat="28.2834849" lon="105.0236862"><ele>950.26</ele><time>2026-05-18T21:22:04.000Z</time></trkpt>
        <trkpt lat="28.2834687" lon="105.0237798"><ele>949.84</ele><time>2026-05-18T21:22:20.000Z</time></trkpt>
        <trkpt lat="28.2834751" lon="105.023817"><ele>950.28</ele><time>2026-05-18T21:22:22.000Z</time></trkpt>
        <trkpt lat="28.283482" lon="105.0238992"><ele>950.04</ele><time>2026-05-18T21:22:40.000Z</time></trkpt>
        <trkpt lat="28.2834529" lon="105.0240219"><ele>950.84</ele><time>2026-05-18T21:23:48.000Z</time></trkpt>
        <trkpt lat="28.2835053" lon="105.0241306"><ele>949.47</ele><time>2026-05-18T21:23:58.000Z</time></trkpt>
        <trkpt lat="28.2835336" lon="105.0242329"><ele>948.94</ele><time>2026-05-18T21:24:06.000Z</time></trkpt>
        <trkpt lat="28.2835786" lon="105.0243237"><ele>948.99</ele><time>2026-05-18T21:24:18.000Z</time></trkpt>
        <trkpt lat="28.2836267" lon="105.0242725"><ele>949.88</ele><time>2026-05-18T21:24:32.000Z</time></trkpt>
        <trkpt lat="28.2836313" lon="105.0241511"><ele>950.12</ele><time>2026-05-18T21:24:44.000Z</time></trkpt>
        <trkpt lat="28.2836243" lon="105.0240216"><ele>950.09</ele><time>2026-05-18T21:25:04.000Z</time></trkpt>
        <trkpt lat="28.2836213" lon="105.0239002"><ele>950.2</ele><time>2026-05-18T21:25:14.000Z</time></trkpt>
        <trkpt lat="28.2836526" lon="105.0237952"><ele>950.17</ele><time>2026-05-18T21:25:26.000Z</time></trkpt>
        <trkpt lat="28.2837343" lon="105.0237708"><ele>950</ele><time>2026-05-18T21:25:50.000Z</time></trkpt>
        <trkpt lat="28.2838117" lon="105.0237138"><ele>951.22</ele><time>2026-05-18T21:26:02.000Z</time></trkpt>
        <trkpt lat="28.2838197" lon="105.0236188"><ele>951.47</ele><time>2026-05-18T21:26:12.000Z</time></trkpt>
        <trkpt lat="28.2837732" lon="105.0235314"><ele>951.38</ele><time>2026-05-18T21:26:24.000Z</time></trkpt>
        <trkpt lat="28.2836877" lon="105.02347"><ele>951.13</ele><time>2026-05-18T21:26:58.000Z</time></trkpt>
        <trkpt lat="28.2836444" lon="105.0233699"><ele>952.08</ele><time>2026-05-18T21:27:26.000Z</time></trkpt>
        <trkpt lat="28.2836245" lon="105.023249"><ele>951.36</ele><time>2026-05-18T21:27:36.000Z</time></trkpt>
        <trkpt lat="28.2836388" lon="105.0231272"><ele>950.01</ele><time>2026-05-18T21:27:50.000Z</time></trkpt>
        <trkpt lat="28.2836344" lon="105.0230744"><ele>950.18</ele><time>2026-05-18T21:27:56.000Z</time></trkpt>
        <trkpt lat="28.2835785" lon="105.0230092"><ele>950.54</ele><time>2026-05-18T21:28:12.000Z</time></trkpt>
        <trkpt lat="28.2835065" lon="105.0229234"><ele>950.76</ele><time>2026-05-18T21:28:24.000Z</time></trkpt>
        <trkpt lat="28.2834021" lon="105.0229031"><ele>951.51</ele><time>2026-05-18T21:28:36.000Z</time></trkpt>
        <trkpt lat="28.2832963" lon="105.0228812"><ele>950.83</ele><time>2026-05-18T21:28:44.000Z</time></trkpt>
        <trkpt lat="28.2831929" lon="105.0228676"><ele>949.65</ele><time>2026-05-18T21:28:52.000Z</time></trkpt>
        <trkpt lat="28.2830867" lon="105.0228594"><ele>948.73</ele><time>2026-05-18T21:29:00.000Z</time></trkpt>
        <trkpt lat="28.2829865" lon="105.0228479"><ele>950.78</ele><time>2026-05-18T21:29:08.000Z</time></trkpt>
        <trkpt lat="28.2828877" lon="105.0228133"><ele>952.82</ele><time>2026-05-18T21:29:18.000Z</time></trkpt>
        <trkpt lat="28.2827919" lon="105.0228083"><ele>954.08</ele><time>2026-05-18T21:29:26.000Z</time></trkpt>
        <trkpt lat="28.2826969" lon="105.0228151"><ele>954.78</ele><time>2026-05-18T21:29:34.000Z</time></trkpt>
        <trkpt lat="28.282593" lon="105.0228139"><ele>955.22</ele><time>2026-05-18T21:29:42.000Z</time></trkpt>
        <trkpt lat="28.2824997" lon="105.0227997"><ele>956.44</ele><time>2026-05-18T21:29:50.000Z</time></trkpt>
        <trkpt lat="28.2824056" lon="105.0227876"><ele>957.61</ele><time>2026-05-18T21:30:00.000Z</time></trkpt>
        <trkpt lat="28.2823101" lon="105.0227553"><ele>957.77</ele><time>2026-05-18T21:30:10.000Z</time></trkpt>
        <trkpt lat="28.282217" lon="105.0227023"><ele>957.83</ele><time>2026-05-18T21:30:30.000Z</time></trkpt>
        <trkpt lat="28.2821189" lon="105.022655"><ele>956.92</ele><time>2026-05-18T21:30:46.000Z</time></trkpt>
        <trkpt lat="28.282049" lon="105.0225709"><ele>956.94</ele><time>2026-05-18T21:30:56.000Z</time></trkpt>
        <trkpt lat="28.2820067" lon="105.0224596"><ele>957.36</ele><time>2026-05-18T21:31:06.000Z</time></trkpt>
        <trkpt lat="28.2820317" lon="105.0224977"><ele>958.02</ele><time>2026-05-18T21:31:30.000Z</time></trkpt>
        <trkpt lat="28.2820848" lon="105.0226062"><ele>959.74</ele><time>2026-05-18T21:31:42.000Z</time></trkpt>
        <trkpt lat="28.2821647" lon="105.0226992"><ele>961.12</ele><time>2026-05-18T21:31:50.000Z</time></trkpt>
        <trkpt lat="28.2822589" lon="105.0227581"><ele>960.82</ele><time>2026-05-18T21:32:00.000Z</time></trkpt>
        <trkpt lat="28.2823538" lon="105.0228072"><ele>959.89</ele><time>2026-05-18T21:32:08.000Z</time></trkpt>
        <trkpt lat="28.2824485" lon="105.0228267"><ele>958.28</ele><time>2026-05-18T21:32:16.000Z</time></trkpt>
        <trkpt lat="28.282551" lon="105.0228484"><ele>955.68</ele><time>2026-05-18T21:32:24.000Z</time></trkpt>
        <trkpt lat="28.2826565" lon="105.0228474"><ele>953.36</ele><time>2026-05-18T21:32:32.000Z</time></trkpt>
        <trkpt lat="28.2827655" lon="105.0228365"><ele>951.33</ele><time>2026-05-18T21:32:40.000Z</time></trkpt>
        <trkpt lat="28.2828776" lon="105.0228462"><ele>949.36</ele><time>2026-05-18T21:32:48.000Z</time></trkpt>
        <trkpt lat="28.2829785" lon="105.0228632"><ele>947.84</ele><time>2026-05-18T21:32:56.000Z</time></trkpt>
        <trkpt lat="28.2830867" lon="105.0228697"><ele>947.01</ele><time>2026-05-18T21:33:04.000Z</time></trkpt>
        <trkpt lat="28.283197" lon="105.0228858"><ele>947.3</ele><time>2026-05-18T21:33:12.000Z</time></trkpt>
        <trkpt lat="28.2833158" lon="105.0229009"><ele>948.09</ele><time>2026-05-18T21:33:20.000Z</time></trkpt>
        <trkpt lat="28.2834285" lon="105.0228845"><ele>948.44</ele><time>2026-05-18T21:33:28.000Z</time></trkpt>
        <trkpt lat="28.2835258" lon="105.0229319"><ele>947.9</ele><time>2026-05-18T21:33:36.000Z</time></trkpt>
        <trkpt lat="28.2836" lon="105.0230161"><ele>948.21</ele><time>2026-05-18T21:33:44.000Z</time></trkpt>
        <trkpt lat="28.2836773" lon="105.0230978"><ele>947.6</ele><time>2026-05-18T21:33:50.000Z</time></trkpt>
        <trkpt lat="28.2836891" lon="105.0232179"><ele>947.8</ele><time>2026-05-18T21:33:58.000Z</time></trkpt>
        <trkpt lat="28.2836693" lon="105.0233295"><ele>948.97</ele><time>2026-05-18T21:34:06.000Z</time></trkpt>
        <trkpt lat="28.2837194" lon="105.0233994"><ele>948.71</ele><time>2026-05-18T21:34:24.000Z</time></trkpt>
        <trkpt lat="28.2837715" lon="105.0234882"><ele>949.06</ele><time>2026-05-18T21:34:36.000Z</time></trkpt>
        <trkpt lat="28.2837709" lon="105.0235126"><ele>950.55</ele><time>2026-05-18T21:34:38.000Z</time></trkpt>
        <trkpt lat="28.2838273" lon="105.0234665"><ele>951.14</ele><time>2026-05-18T21:34:44.000Z</time></trkpt>
        <trkpt lat="28.283754" lon="105.0234679"><ele>951.8</ele><time>2026-05-18T21:53:50.000Z</time></trkpt>
        <trkpt lat="28.2836995" lon="105.023368"><ele>953.07</ele><time>2026-05-18T21:58:34.000Z</time></trkpt>
        <trkpt lat="28.2836897" lon="105.0232497"><ele>953.87</ele><time>2026-05-18T21:58:44.000Z</time></trkpt>
        <trkpt lat="28.2836677" lon="105.0233506"><ele>953.2</ele><time>2026-05-18T22:00:20.000Z</time></trkpt>
        <trkpt lat="28.283689" lon="105.0232303"><ele>952.24</ele><time>2026-05-18T22:00:26.000Z</time></trkpt>
        <trkpt lat="28.2836685" lon="105.0231084"><ele>952.92</ele><time>2026-05-18T22:00:34.000Z</time></trkpt>
        <trkpt lat="28.2835976" lon="105.0230171"><ele>952.4</ele><time>2026-05-18T22:00:42.000Z</time></trkpt>
        <trkpt lat="28.2835221" lon="105.0229341"><ele>952.82</ele><time>2026-05-18T22:00:50.000Z</time></trkpt>
        <trkpt lat="28.2834726" lon="105.0228832"><ele>953.22</ele><time>2026-05-18T22:00:56.000Z</time></trkpt>
        <trkpt lat="28.2835021" lon="105.0228118"><ele>953.58</ele><time>2026-05-18T22:01:08.000Z</time></trkpt>
        <trkpt lat="28.2835288" lon="105.0227152"><ele>953.39</ele><time>2026-05-18T22:01:20.000Z</time></trkpt>
        <trkpt lat="28.2835304" lon="105.0226075"><ele>955.61</ele><time>2026-05-18T22:01:32.000Z</time></trkpt>
        <trkpt lat="28.2834979" lon="105.0224918"><ele>956.04</ele><time>2026-05-18T22:01:42.000Z</time></trkpt>
        <trkpt lat="28.2834721" lon="105.0224613"><ele>957.5</ele><time>2026-05-18T22:01:44.000Z</time></trkpt>
        <trkpt lat="28.2833962" lon="105.0224855"><ele>958.11</ele><time>2026-05-18T22:02:04.000Z</time></trkpt>
        <trkpt lat="28.2833861" lon="105.0225823"><ele>957.73</ele><time>2026-05-18T22:02:12.000Z</time></trkpt>
        <trkpt lat="28.2834201" lon="105.0226915"><ele>956.78</ele><time>2026-05-18T22:02:20.000Z</time></trkpt>
        <trkpt lat="28.2833858" lon="105.0227932"><ele>953.42</ele><time>2026-05-18T22:02:28.000Z</time></trkpt>
        <trkpt lat="28.2833031" lon="105.0228431"><ele>951.23</ele><time>2026-05-18T22:02:38.000Z</time></trkpt>
        <trkpt lat="28.2832011" lon="105.0228547"><ele>952.72</ele><time>2026-05-18T22:02:48.000Z</time></trkpt>
        <trkpt lat="28.2831795" lon="105.0228431"><ele>955.27</ele><time>2026-05-18T22:02:52.000Z</time></trkpt>
        <trkpt lat="28.2831076" lon="105.0228328"><ele>954.96</ele><time>2026-05-18T22:03:22.000Z</time></trkpt>
        <trkpt lat="28.2830075" lon="105.0228339"><ele>954.59</ele><time>2026-05-18T22:03:32.000Z</time></trkpt>
        <trkpt lat="28.2829086" lon="105.0228302"><ele>955.5</ele><time>2026-05-18T22:03:48.000Z</time></trkpt>
        <trkpt lat="28.2828357" lon="105.0227721"><ele>955.92</ele><time>2026-05-18T22:04:02.000Z</time></trkpt>
        <trkpt lat="28.2827525" lon="105.0227217"><ele>957.13</ele><time>2026-05-18T22:04:34.000Z</time></trkpt>
        <trkpt lat="28.2826733" lon="105.0227457"><ele>956.08</ele><time>2026-05-18T22:04:40.000Z</time></trkpt>
        <trkpt lat="28.2825724" lon="105.0227723"><ele>955.77</ele><time>2026-05-18T22:04:50.000Z</time></trkpt>
        <trkpt lat="28.2824677" lon="105.0227967"><ele>957.04</ele><time>2026-05-18T22:05:00.000Z</time></trkpt>
        <trkpt lat="28.2823676" lon="105.0227982"><ele>958.07</ele><time>2026-05-18T22:05:22.000Z</time></trkpt>
        <trkpt lat="28.2822793" lon="105.0227647"><ele>958.09</ele><time>2026-05-18T22:05:32.000Z</time></trkpt>
        <trkpt lat="28.2821908" lon="105.022743"><ele>957.49</ele><time>2026-05-18T22:05:52.000Z</time></trkpt>
        <trkpt lat="28.2820811" lon="105.0227025"><ele>957.92</ele><time>2026-05-18T22:07:46.000Z</time></trkpt>
        <trkpt lat="28.2820734" lon="105.0225982"><ele>958.18</ele><time>2026-05-18T22:09:26.000Z</time></trkpt>
        <trkpt lat="28.282099" lon="105.0226989"><ele>954.7</ele><time>2026-05-18T22:09:34.000Z</time></trkpt>
        <trkpt lat="28.2821155" lon="105.0226241"><ele>953.27</ele><time>2026-05-18T22:09:50.000Z</time></trkpt>
        <trkpt lat="28.2820644" lon="105.0225478"><ele>950.53</ele><time>2026-05-18T22:10:08.000Z</time></trkpt>
        <trkpt lat="28.282009" lon="105.0224469"><ele>948.27</ele><time>2026-05-18T22:10:28.000Z</time></trkpt>
        <trkpt lat="28.2819872" lon="105.0225064"><ele>947.33</ele><time>2026-05-18T22:10:50.000Z</time></trkpt>
        <trkpt lat="28.2819757" lon="105.0225106"><ele>948.53</ele><time>2026-05-18T22:10:54.000Z</time></trkpt>
        <trkpt lat="28.2819639" lon="105.0224291"><ele>949.42</ele><time>2026-05-18T22:11:08.000Z</time></trkpt>
        <trkpt lat="28.2819299" lon="105.0223861"><ele>949.64</ele><time>2026-05-18T22:11:26.000Z</time></trkpt>
        <trkpt lat="28.2819108" lon="105.0224546"><ele>951.36</ele><time>2026-05-18T22:12:18.000Z</time></trkpt>
        <trkpt lat="28.2818694" lon="105.022513"><ele>955.01</ele><time>2026-05-18T22:12:28.000Z</time></trkpt>
        <trkpt lat="28.2819534" lon="105.0225434"><ele>959.5</ele><time>2026-05-18T22:14:02.000Z</time></trkpt>
        <trkpt lat="28.2819622" lon="105.0224334"><ele>960.18</ele><time>2026-05-18T22:16:34.000Z</time></trkpt>
        <trkpt lat="28.2820178" lon="105.0225231"><ele>959.27</ele><time>2026-05-18T22:17:04.000Z</time></trkpt>
        <trkpt lat="28.2820738" lon="105.0226141"><ele>957.55</ele><time>2026-05-18T22:17:16.000Z</time></trkpt>
        <trkpt lat="28.2820957" lon="105.0226665"><ele>956.56</ele><time>2026-05-18T22:17:26.000Z</time></trkpt>
        <trkpt lat="28.2820417" lon="105.0225439"><ele>954.87</ele><time>2026-05-18T22:19:15.000Z</time></trkpt>
        <trkpt lat="28.2820154" lon="105.0224497"><ele>954.27</ele><time>2026-05-18T22:19:27.000Z</time></trkpt>
        <trkpt lat="28.2820518" lon="105.0225262"><ele>952.81</ele><time>2026-05-18T22:19:37.000Z</time></trkpt>
        <trkpt lat="28.282027" lon="105.0224802"><ele>954.89</ele><time>2026-05-18T22:20:21.000Z</time></trkpt>
        <trkpt lat="28.2820128" lon="105.0224553"><ele>955.84</ele><time>2026-05-18T22:20:25.000Z</time></trkpt>
        <trkpt lat="28.2819364" lon="105.0224171"><ele>955.35</ele><time>2026-05-18T22:21:07.000Z</time></trkpt>
        <trkpt lat="28.2819131" lon="105.0224027"><ele>957.4</ele><time>2026-05-18T22:21:09.000Z</time></trkpt>
        <trkpt lat="28.2819734" lon="105.0223724"><ele>958.39</ele><time>2026-05-18T22:21:57.000Z</time></trkpt>
        <trkpt lat="28.281945" lon="105.0224505"><ele>957.38</ele><time>2026-05-18T22:24:33.000Z</time></trkpt>
        <trkpt lat="28.2819342" lon="105.0223786"><ele>956.19</ele><time>2026-05-18T22:24:57.000Z</time></trkpt>
        <trkpt lat="28.2818777" lon="105.0224286"><ele>955.43</ele><time>2026-05-18T22:25:21.000Z</time></trkpt>
        <trkpt lat="28.2818565" lon="105.0223968"><ele>957.18</ele><time>2026-05-18T22:25:29.000Z</time></trkpt>
        <trkpt lat="28.281884" lon="105.0224948"><ele>958.96</ele><time>2026-05-18T22:26:31.000Z</time></trkpt>
        <trkpt lat="28.2819485" lon="105.022414"><ele>961.15</ele><time>2026-05-18T22:29:31.000Z</time></trkpt>
        <trkpt lat="28.2819594" lon="105.0222991"><ele>960.1</ele><time>2026-05-18T22:29:53.000Z</time></trkpt>
        <trkpt lat="28.2819607" lon="105.0222824"><ele>957.36</ele><time>2026-05-18T22:29:55.000Z</time></trkpt>
        <trkpt lat="28.2819743" lon="105.02236"><ele>955.93</ele><time>2026-05-18T22:30:43.000Z</time></trkpt>
        <trkpt lat="28.2819469" lon="105.0225186"><ele>954.91</ele><time>2026-05-18T22:36:23.000Z</time></trkpt>
        <trkpt lat="28.2818571" lon="105.0224742"><ele>954.41</ele><time>2026-05-18T22:36:29.000Z</time></trkpt>
        <trkpt lat="28.2818421" lon="105.022442"><ele>954.16</ele><time>2026-05-18T22:36:31.000Z</time></trkpt>
        <trkpt lat="28.2819307" lon="105.0225037"><ele>953.5</ele><time>2026-05-18T22:37:43.000Z</time></trkpt>
        <trkpt lat="28.281978" lon="105.0224067"><ele>958.64</ele><time>2026-05-18T22:38:17.000Z</time></trkpt>
        <trkpt lat="28.2819792" lon="105.0223804"><ele>959.47</ele><time>2026-05-18T22:38:19.000Z</time></trkpt>
        <trkpt lat="28.282009" lon="105.0222708"><ele>959.7</ele><time>2026-05-18T22:40:31.000Z</time></trkpt>
        <trkpt lat="28.2820254" lon="105.0223939"><ele>956.29</ele><time>2026-05-18T22:41:45.000Z</time></trkpt>
        <trkpt lat="28.2820142" lon="105.0223758"><ele>953.93</ele><time>2026-05-18T22:41:57.000Z</time></trkpt>
        <trkpt lat="28.2819259" lon="105.0223366"><ele>951.91</ele><time>2026-05-18T22:44:11.000Z</time></trkpt>
        <trkpt lat="28.2819458" lon="105.0224463"><ele>951.08</ele><time>2026-05-18T22:44:19.000Z</time></trkpt>
        <trkpt lat="28.2819435" lon="105.022447"><ele>950.58</ele><time>2026-05-18T22:44:21.000Z</time></trkpt>
        <trkpt lat="28.2818776" lon="105.0223786"><ele>948.81</ele><time>2026-05-18T22:44:41.000Z</time></trkpt>
        <trkpt lat="28.2818516" lon="105.0223346"><ele>951.5</ele><time>2026-05-18T22:44:47.000Z</time></trkpt>
        <trkpt lat="28.2817542" lon="105.0223389"><ele>952.71</ele><time>2026-05-18T22:54:07.000Z</time></trkpt>
        <trkpt lat="28.2817653" lon="105.0223774"><ele>950.93</ele><time>2026-05-18T22:54:11.000Z</time></trkpt>
        <trkpt lat="28.2818601" lon="105.0223522"><ele>950.34</ele><time>2026-05-18T22:55:19.000Z</time></trkpt>
        <trkpt lat="28.2817657" lon="105.0223518"><ele>948.54</ele><time>2026-05-18T22:56:51.000Z</time></trkpt>
        <trkpt lat="28.2816786" lon="105.0223173"><ele>948.1</ele><time>2026-05-18T22:57:35.000Z</time></trkpt>
        <trkpt lat="28.2816683" lon="105.0223486"><ele>949.13</ele><time>2026-05-18T22:57:51.000Z</time></trkpt>
        <trkpt lat="28.2817406" lon="105.0222696"><ele>950.08</ele><time>2026-05-18T23:02:27.000Z</time></trkpt>
        <trkpt lat="28.2816566" lon="105.0223066"><ele>951.47</ele><time>2026-05-18T23:05:13.000Z</time></trkpt>
        <trkpt lat="28.2817458" lon="105.0223562"><ele>951.41</ele><time>2026-05-18T23:20:21.000Z</time></trkpt>
        <trkpt lat="28.2817484" lon="105.0223541"><ele>951.07</ele><time>2026-05-18T23:20:23.000Z</time></trkpt>
        <trkpt lat="28.2817218" lon="105.0222477"><ele>950.85</ele><time>2026-05-18T23:21:39.000Z</time></trkpt>
        <trkpt lat="28.2818161" lon="105.02223"><ele>949.84</ele><time>2026-05-18T23:21:49.000Z</time></trkpt>
        <trkpt lat="28.2817804" lon="105.0222796"><ele>948.62</ele><time>2026-05-18T23:21:57.000Z</time></trkpt>
        <trkpt lat="28.2816768" lon="105.0223138"><ele>946.88</ele><time>2026-05-18T23:22:03.000Z</time></trkpt>
        <trkpt lat="28.2816877" lon="105.0222965"><ele>945.51</ele><time>2026-05-18T23:22:11.000Z</time></trkpt>
        <trkpt lat="28.2817296" lon="105.0222196"><ele>943.76</ele><time>2026-05-18T23:23:07.000Z</time></trkpt>
        <trkpt lat="28.2817328" lon="105.0222069"><ele>943.15</ele><time>2026-05-18T23:23:17.000Z</time></trkpt>
        <trkpt lat="28.2816756" lon="105.022121"><ele>941.47</ele><time>2026-05-18T23:25:51.000Z</time></trkpt>
        <trkpt lat="28.2816789" lon="105.0221027"><ele>937.62</ele><time>2026-05-18T23:25:55.000Z</time></trkpt>
        <trkpt lat="28.2816061" lon="105.0220419"><ele>935.95</ele><time>2026-05-18T23:31:35.000Z</time></trkpt>
        <trkpt lat="28.2815202" lon="105.0220814"><ele>935.19</ele><time>2026-05-18T23:31:45.000Z</time></trkpt>
        <trkpt lat="28.2814308" lon="105.0221212"><ele>933.64</ele><time>2026-05-18T23:31:55.000Z</time></trkpt>
        <trkpt lat="28.2813588" lon="105.0220645"><ele>930.98</ele><time>2026-05-18T23:32:05.000Z</time></trkpt>
        <trkpt lat="28.2812858" lon="105.022011"><ele>929.86</ele><time>2026-05-18T23:32:15.000Z</time></trkpt>
        <trkpt lat="28.2812221" lon="105.0220622"><ele>929.53</ele><time>2026-05-18T23:32:41.000Z</time></trkpt>
        <trkpt lat="28.2812374" lon="105.0221549"><ele>927.25</ele><time>2026-05-18T23:32:53.000Z</time></trkpt>
        <trkpt lat="28.2812685" lon="105.0222623"><ele>925.61</ele><time>2026-05-18T23:33:03.000Z</time></trkpt>
        <trkpt lat="28.281298" lon="105.0223293"><ele>922.92</ele><time>2026-05-18T23:33:11.000Z</time></trkpt>
        <trkpt lat="28.2813594" lon="105.0224006"><ele>920.86</ele><time>2026-05-18T23:33:31.000Z</time></trkpt>
        <trkpt lat="28.2813592" lon="105.0224098"><ele>917.13</ele><time>2026-05-18T23:33:37.000Z</time></trkpt>
        <trkpt lat="28.2814217" lon="105.0224197"><ele>913.37</ele><time>2026-05-18T23:34:03.000Z</time></trkpt>
        <trkpt lat="28.2815105" lon="105.0224489"><ele>909.33</ele><time>2026-05-18T23:34:19.000Z</time></trkpt>
        <trkpt lat="28.2815896" lon="105.0225082"><ele>905.59</ele><time>2026-05-18T23:34:29.000Z</time></trkpt>
        <trkpt lat="28.2816576" lon="105.0225866"><ele>901.95</ele><time>2026-05-18T23:34:41.000Z</time></trkpt>
        <trkpt lat="28.2816638" lon="105.0225871"><ele>898.14</ele><time>2026-05-18T23:34:43.000Z</time></trkpt>
        <trkpt lat="28.2817131" lon="105.0226387"><ele>894.08</ele><time>2026-05-18T23:34:57.000Z</time></trkpt>
        <trkpt lat="28.2817747" lon="105.0227181"><ele>890.44</ele><time>2026-05-18T23:35:07.000Z</time></trkpt>
        <trkpt lat="28.2817182" lon="105.0227434"><ele>887.64</ele><time>2026-05-18T23:35:29.000Z</time></trkpt>
        <trkpt lat="28.2816282" lon="105.0227753"><ele>882.93</ele><time>2026-05-18T23:35:37.000Z</time></trkpt>
        <trkpt lat="28.2815283" lon="105.0227522"><ele>879.23</ele><time>2026-05-18T23:35:49.000Z</time></trkpt>
        <trkpt lat="28.2814803" lon="105.0228218"><ele>870.44</ele><time>2026-05-18T23:36:09.000Z</time></trkpt>
        <trkpt lat="28.2814798" lon="105.0228536"><ele>864.22</ele><time>2026-05-18T23:36:11.000Z</time></trkpt>
        <trkpt lat="28.28151" lon="105.0229565"><ele>860.79</ele><time>2026-05-18T23:36:19.000Z</time></trkpt>
        <trkpt lat="28.2815445" lon="105.0230837"><ele>859.92</ele><time>2026-05-18T23:36:27.000Z</time></trkpt>
        <trkpt lat="28.2815665" lon="105.0231252"><ele>859.21</ele><time>2026-05-18T23:36:29.000Z</time></trkpt>
        <trkpt lat="28.2815727" lon="105.0232068"><ele>858.62</ele><time>2026-05-18T23:36:47.000Z</time></trkpt>
        <trkpt lat="28.2815932" lon="105.0232933"><ele>859.48</ele><time>2026-05-18T23:36:55.000Z</time></trkpt>
        <trkpt lat="28.2815945" lon="105.0233936"><ele>859.95</ele><time>2026-05-18T23:37:05.000Z</time></trkpt>
        <trkpt lat="28.2815752" lon="105.0234954"><ele>858.28</ele><time>2026-05-18T23:37:13.000Z</time></trkpt>
        <trkpt lat="28.2815554" lon="105.023567"><ele>855.52</ele><time>2026-05-18T23:37:27.000Z</time></trkpt>
        <trkpt lat="28.2815964" lon="105.0236462"><ele>852.45</ele><time>2026-05-18T23:37:39.000Z</time></trkpt>
        <trkpt lat="28.2816787" lon="105.0237068"><ele>847.46</ele><time>2026-05-18T23:37:49.000Z</time></trkpt>
        <trkpt lat="28.2817661" lon="105.0237598"><ele>844.29</ele><time>2026-05-18T23:37:59.000Z</time></trkpt>
        <trkpt lat="28.2817906" lon="105.023786"><ele>842.15</ele><time>2026-05-18T23:38:01.000Z</time></trkpt>
        <trkpt lat="28.2817812" lon="105.0238693"><ele>840.99</ele><time>2026-05-18T23:38:13.000Z</time></trkpt>
        <trkpt lat="28.2817413" lon="105.0239027"><ele>839.1</ele><time>2026-05-18T23:38:19.000Z</time></trkpt>
        <trkpt lat="28.2816831" lon="105.0239708"><ele>837.97</ele><time>2026-05-18T23:38:33.000Z</time></trkpt>
        <trkpt lat="28.2816562" lon="105.0240713"><ele>835.47</ele><time>2026-05-18T23:38:45.000Z</time></trkpt>
        <trkpt lat="28.2816343" lon="105.024183"><ele>831.52</ele><time>2026-05-18T23:38:59.000Z</time></trkpt>
        <trkpt lat="28.2816235" lon="105.0242977"><ele>826.48</ele><time>2026-05-18T23:39:11.000Z</time></trkpt>
        <trkpt lat="28.2815953" lon="105.0244186"><ele>822.82</ele><time>2026-05-18T23:39:21.000Z</time></trkpt>
        <trkpt lat="28.2815739" lon="105.0245308"><ele>817.82</ele><time>2026-05-18T23:39:29.000Z</time></trkpt>
        <trkpt lat="28.2815357" lon="105.0246263"><ele>813.46</ele><time>2026-05-18T23:39:37.000Z</time></trkpt>
        <trkpt lat="28.2814829" lon="105.0247188"><ele>809.13</ele><time>2026-05-18T23:39:47.000Z</time></trkpt>
        <trkpt lat="28.2814896" lon="105.0247894"><ele>805.6</ele><time>2026-05-18T23:39:57.000Z</time></trkpt>
        <trkpt lat="28.2815157" lon="105.0248976"><ele>801.9</ele><time>2026-05-18T23:40:15.000Z</time></trkpt>
        <trkpt lat="28.2815101" lon="105.0250084"><ele>796.99</ele><time>2026-05-18T23:40:25.000Z</time></trkpt>
        <trkpt lat="28.2814567" lon="105.0251044"><ele>793.44</ele><time>2026-05-18T23:40:35.000Z</time></trkpt>
        <trkpt lat="28.2813964" lon="105.0252083"><ele>788.89</ele><time>2026-05-18T23:40:45.000Z</time></trkpt>
        <trkpt lat="28.2813449" lon="105.0253213"><ele>784.68</ele><time>2026-05-18T23:41:01.000Z</time></trkpt>
        <trkpt lat="28.2813626" lon="105.0254236"><ele>779.73</ele><time>2026-05-18T23:41:11.000Z</time></trkpt>
        <trkpt lat="28.2813583" lon="105.0254788"><ele>775.73</ele><time>2026-05-18T23:41:17.000Z</time></trkpt>
        <trkpt lat="28.2812952" lon="105.0254588"><ele>772.81</ele><time>2026-05-18T23:41:25.000Z</time></trkpt>
        <trkpt lat="28.2812041" lon="105.0253955"><ele>769.77</ele><time>2026-05-18T23:41:45.000Z</time></trkpt>
        <trkpt lat="28.281123" lon="105.0252862"><ele>768.08</ele><time>2026-05-18T23:41:51.000Z</time></trkpt>
        <trkpt lat="28.2810444" lon="105.0252048"><ele>765.99</ele><time>2026-05-18T23:41:57.000Z</time></trkpt>
        <trkpt lat="28.2809697" lon="105.0251317"><ele>764.47</ele><time>2026-05-18T23:42:05.000Z</time></trkpt>
        <trkpt lat="28.2810112" lon="105.0251765"><ele>763.45</ele><time>2026-05-18T23:42:13.000Z</time></trkpt>
        <trkpt lat="28.2811036" lon="105.0252523"><ele>762.15</ele><time>2026-05-18T23:42:21.000Z</time></trkpt>
        <trkpt lat="28.2812045" lon="105.0253376"><ele>760.64</ele><time>2026-05-18T23:42:29.000Z</time></trkpt>
        <trkpt lat="28.2812599" lon="105.0254415"><ele>760.93</ele><time>2026-05-18T23:42:39.000Z</time></trkpt>
        <trkpt lat="28.2812681" lon="105.0255652"><ele>762.45</ele><time>2026-05-18T23:42:51.000Z</time></trkpt>
        <trkpt lat="28.2812271" lon="105.0256718"><ele>761.6</ele><time>2026-05-18T23:42:59.000Z</time></trkpt>
        <trkpt lat="28.2811688" lon="105.0257703"><ele>759.67</ele><time>2026-05-18T23:43:13.000Z</time></trkpt>
        <trkpt lat="28.2810814" lon="105.025843"><ele>757.23</ele><time>2026-05-18T23:43:21.000Z</time></trkpt>
        <trkpt lat="28.2809631" lon="105.025851"><ele>754.95</ele><time>2026-05-18T23:43:39.000Z</time></trkpt>
        <trkpt lat="28.2809313" lon="105.0258379"><ele>752.3</ele><time>2026-05-18T23:43:41.000Z</time></trkpt>
        <trkpt lat="28.2808605" lon="105.0258725"><ele>748.81</ele><time>2026-05-18T23:43:51.000Z</time></trkpt>
        <trkpt lat="28.2807735" lon="105.0258952"><ele>747.26</ele><time>2026-05-18T23:44:03.000Z</time></trkpt>
        <trkpt lat="28.2807302" lon="105.0259793"><ele>744.01</ele><time>2026-05-18T23:44:11.000Z</time></trkpt>
        <trkpt lat="28.280708" lon="105.0260821"><ele>740.04</ele><time>2026-05-18T23:44:19.000Z</time></trkpt>
        <trkpt lat="28.2807499" lon="105.0262021"><ele>737.86</ele><time>2026-05-18T23:44:27.000Z</time></trkpt>
        <trkpt lat="28.2807538" lon="105.026315"><ele>735.72</ele><time>2026-05-18T23:44:37.000Z</time></trkpt>
        <trkpt lat="28.2807938" lon="105.0264274"><ele>732.79</ele><time>2026-05-18T23:44:43.000Z</time></trkpt>
        <trkpt lat="28.2808435" lon="105.0265461"><ele>730.22</ele><time>2026-05-18T23:44:51.000Z</time></trkpt>
        <trkpt lat="28.2809096" lon="105.0266429"><ele>728.36</ele><time>2026-05-18T23:44:59.000Z</time></trkpt>
        <trkpt lat="28.2809818" lon="105.0267252"><ele>726.35</ele><time>2026-05-18T23:45:11.000Z</time></trkpt>
        <trkpt lat="28.2810583" lon="105.0267778"><ele>722</ele><time>2026-05-18T23:45:21.000Z</time></trkpt>
        <trkpt lat="28.2811304" lon="105.0268414"><ele>717.09</ele><time>2026-05-18T23:45:31.000Z</time></trkpt>
        <trkpt lat="28.2811823" lon="105.0269381"><ele>715.44</ele><time>2026-05-18T23:45:41.000Z</time></trkpt>
        <trkpt lat="28.2812093" lon="105.0270584"><ele>713.39</ele><time>2026-05-18T23:45:51.000Z</time></trkpt>
        <trkpt lat="28.2812278" lon="105.0271743"><ele>708.08</ele><time>2026-05-18T23:46:01.000Z</time></trkpt>
        <trkpt lat="28.2812874" lon="105.0272649"><ele>702.21</ele><time>2026-05-18T23:46:09.000Z</time></trkpt>
        <trkpt lat="28.2813609" lon="105.0273398"><ele>698.11</ele><time>2026-05-18T23:46:17.000Z</time></trkpt>
        <trkpt lat="28.2813811" lon="105.0273515"><ele>693.31</ele><time>2026-05-18T23:46:19.000Z</time></trkpt>
        <trkpt lat="28.2814591" lon="105.0273538"><ele>690.39</ele><time>2026-05-18T23:46:41.000Z</time></trkpt>
        <trkpt lat="28.2815414" lon="105.0274"><ele>687.75</ele><time>2026-05-18T23:46:51.000Z</time></trkpt>
        <trkpt lat="28.2816416" lon="105.0274061"><ele>687.57</ele><time>2026-05-18T23:46:59.000Z</time></trkpt>
        <trkpt lat="28.2817582" lon="105.0273925"><ele>687.17</ele><time>2026-05-18T23:47:09.000Z</time></trkpt>
        <trkpt lat="28.2818652" lon="105.0273819"><ele>685.61</ele><time>2026-05-18T23:47:15.000Z</time></trkpt>
        <trkpt lat="28.2819604" lon="105.0273773"><ele>684.6</ele><time>2026-05-18T23:47:21.000Z</time></trkpt>
        <trkpt lat="28.2820543" lon="105.0274018"><ele>683.96</ele><time>2026-05-18T23:47:29.000Z</time></trkpt>
        <trkpt lat="28.282127" lon="105.0274483"><ele>683.64</ele><time>2026-05-18T23:47:39.000Z</time></trkpt>
        <trkpt lat="28.2821643" lon="105.0275434"><ele>683.65</ele><time>2026-05-18T23:47:55.000Z</time></trkpt>
        <trkpt lat="28.2821397" lon="105.0276623"><ele>681.56</ele><time>2026-05-18T23:48:01.000Z</time></trkpt>
        <trkpt lat="28.2821086" lon="105.0277869"><ele>679.65</ele><time>2026-05-18T23:48:07.000Z</time></trkpt>
        <trkpt lat="28.2820716" lon="105.0279198"><ele>678.32</ele><time>2026-05-18T23:48:13.000Z</time></trkpt>
        <trkpt lat="28.282056" lon="105.0280382"><ele>678.47</ele><time>2026-05-18T23:48:21.000Z</time></trkpt>
        <trkpt lat="28.2820964" lon="105.0281333"><ele>677.96</ele><time>2026-05-18T23:48:29.000Z</time></trkpt>
        <trkpt lat="28.2821835" lon="105.0282005"><ele>677.54</ele><time>2026-05-18T23:48:37.000Z</time></trkpt>
        <trkpt lat="28.2822477" lon="105.0282927"><ele>676.06</ele><time>2026-05-18T23:48:47.000Z</time></trkpt>
        <trkpt lat="28.2823235" lon="105.0283718"><ele>674.52</ele><time>2026-05-18T23:48:55.000Z</time></trkpt>
        <trkpt lat="28.2824193" lon="105.0284311"><ele>673.13</ele><time>2026-05-18T23:49:03.000Z</time></trkpt>
        <trkpt lat="28.282487" lon="105.028505"><ele>671.9</ele><time>2026-05-18T23:49:09.000Z</time></trkpt>
        <trkpt lat="28.2824829" lon="105.0286112"><ele>671.11</ele><time>2026-05-18T23:49:15.000Z</time></trkpt>
        <trkpt lat="28.2824422" lon="105.0287247"><ele>670.26</ele><time>2026-05-18T23:49:23.000Z</time></trkpt>
        <trkpt lat="28.2824331" lon="105.0288533"><ele>668.5</ele><time>2026-05-18T23:49:31.000Z</time></trkpt>
        <trkpt lat="28.2824678" lon="105.0289529"><ele>668.48</ele><time>2026-05-18T23:49:37.000Z</time></trkpt>
        <trkpt lat="28.2825255" lon="105.0290591"><ele>669.4</ele><time>2026-05-18T23:49:45.000Z</time></trkpt>
        <trkpt lat="28.2825974" lon="105.0291671"><ele>669.87</ele><time>2026-05-18T23:49:53.000Z</time></trkpt>
        <trkpt lat="28.2826877" lon="105.0292408"><ele>669.63</ele><time>2026-05-18T23:50:01.000Z</time></trkpt>
        <trkpt lat="28.2827463" lon="105.0292515"><ele>669.09</ele><time>2026-05-18T23:50:07.000Z</time></trkpt>
        <trkpt lat="28.2828359" lon="105.0292193"><ele>668.49</ele><time>2026-05-18T23:50:17.000Z</time></trkpt>
        <trkpt lat="28.2829363" lon="105.029187"><ele>668.23</ele><time>2026-05-18T23:50:23.000Z</time></trkpt>
        <trkpt lat="28.2830336" lon="105.0291708"><ele>666.74</ele><time>2026-05-18T23:50:29.000Z</time></trkpt>
        <trkpt lat="28.2830873" lon="105.0292485"><ele>664.13</ele><time>2026-05-18T23:50:35.000Z</time></trkpt>
        <trkpt lat="28.2830922" lon="105.0293552"><ele>663.51</ele><time>2026-05-18T23:50:41.000Z</time></trkpt>
        <trkpt lat="28.2830854" lon="105.0294835"><ele>663.3</ele><time>2026-05-18T23:50:49.000Z</time></trkpt>
        <trkpt lat="28.2830781" lon="105.0296221"><ele>661.68</ele><time>2026-05-18T23:50:57.000Z</time></trkpt>
        <trkpt lat="28.2831283" lon="105.0297126"><ele>661.18</ele><time>2026-05-18T23:51:05.000Z</time></trkpt>
        <trkpt lat="28.2832131" lon="105.0297573"><ele>659.92</ele><time>2026-05-18T23:51:11.000Z</time></trkpt>
        <trkpt lat="28.283305" lon="105.029803"><ele>659.01</ele><time>2026-05-18T23:51:17.000Z</time></trkpt>
        <trkpt lat="28.2833755" lon="105.0298943"><ele>657.08</ele><time>2026-05-18T23:51:25.000Z</time></trkpt>
        <trkpt lat="28.283451" lon="105.0299932"><ele>654.59</ele><time>2026-05-18T23:51:35.000Z</time></trkpt>
        <trkpt lat="28.2835301" lon="105.0300928"><ele>653.43</ele><time>2026-05-18T23:51:43.000Z</time></trkpt>
        <trkpt lat="28.2835763" lon="105.0302074"><ele>650.53</ele><time>2026-05-18T23:51:51.000Z</time></trkpt>
        <trkpt lat="28.2835887" lon="105.0302523"><ele>648.5</ele><time>2026-05-18T23:51:55.000Z</time></trkpt>
        <trkpt lat="28.2836343" lon="105.0303279"><ele>647.36</ele><time>2026-05-18T23:52:03.000Z</time></trkpt>
        <trkpt lat="28.2836779" lon="105.0304232"><ele>645.99</ele><time>2026-05-18T23:52:13.000Z</time></trkpt>
        <trkpt lat="28.2836872" lon="105.0305405"><ele>643.29</ele><time>2026-05-18T23:52:23.000Z</time></trkpt>
        <trkpt lat="28.2837435" lon="105.0305539"><ele>638.88</ele><time>2026-05-18T23:52:33.000Z</time></trkpt>
        <trkpt lat="28.2838309" lon="105.0305045"><ele>634.84</ele><time>2026-05-18T23:52:47.000Z</time></trkpt>
        <trkpt lat="28.283933" lon="105.0304369"><ele>630.88</ele><time>2026-05-18T23:52:55.000Z</time></trkpt>
        <trkpt lat="28.2840367" lon="105.0303653"><ele>626.68</ele><time>2026-05-18T23:53:03.000Z</time></trkpt>
        <trkpt lat="28.2841302" lon="105.030284"><ele>623.06</ele><time>2026-05-18T23:53:11.000Z</time></trkpt>
        <trkpt lat="28.2841776" lon="105.0303427"><ele>620.47</ele><time>2026-05-18T23:53:19.000Z</time></trkpt>
        <trkpt lat="28.2841554" lon="105.030463"><ele>617.83</ele><time>2026-05-18T23:53:27.000Z</time></trkpt>
        <trkpt lat="28.2841348" lon="105.0305909"><ele>615.89</ele><time>2026-05-18T23:53:35.000Z</time></trkpt>
        <trkpt lat="28.2841779" lon="105.0306807"><ele>613.93</ele><time>2026-05-18T23:53:43.000Z</time></trkpt>
        <trkpt lat="28.284256" lon="105.0307713"><ele>612.2</ele><time>2026-05-18T23:53:51.000Z</time></trkpt>
        <trkpt lat="28.2843362" lon="105.0308603"><ele>611.35</ele><time>2026-05-18T23:53:57.000Z</time></trkpt>
        <trkpt lat="28.2844276" lon="105.0309519"><ele>613.29</ele><time>2026-05-18T23:54:05.000Z</time></trkpt>
        <trkpt lat="28.2845119" lon="105.0310395"><ele>615.86</ele><time>2026-05-18T23:54:13.000Z</time></trkpt>
        <trkpt lat="28.2845731" lon="105.0311284"><ele>617.87</ele><time>2026-05-18T23:54:19.000Z</time></trkpt>
        <trkpt lat="28.2846394" lon="105.0312244"><ele>619.11</ele><time>2026-05-18T23:54:27.000Z</time></trkpt>
        <trkpt lat="28.2847202" lon="105.0312848"><ele>620.24</ele><time>2026-05-18T23:54:35.000Z</time></trkpt>
        <trkpt lat="28.284825" lon="105.031273"><ele>621.09</ele><time>2026-05-18T23:54:41.000Z</time></trkpt>
        <trkpt lat="28.2848787" lon="105.0311873"><ele>621.63</ele><time>2026-05-18T23:54:47.000Z</time></trkpt>
        <trkpt lat="28.2849228" lon="105.0310786"><ele>621.77</ele><time>2026-05-18T23:54:53.000Z</time></trkpt>
        <trkpt lat="28.2849862" lon="105.03098"><ele>620.83</ele><time>2026-05-18T23:55:01.000Z</time></trkpt>
        <trkpt lat="28.2850781" lon="105.030939"><ele>621.57</ele><time>2026-05-18T23:55:07.000Z</time></trkpt>
        <trkpt lat="28.2851655" lon="105.0309689"><ele>622.29</ele><time>2026-05-18T23:55:13.000Z</time></trkpt>
        <trkpt lat="28.2852609" lon="105.0310298"><ele>623.25</ele><time>2026-05-18T23:55:21.000Z</time></trkpt>
        <trkpt lat="28.2853571" lon="105.0310866"><ele>624.74</ele><time>2026-05-18T23:55:29.000Z</time></trkpt>
        <trkpt lat="28.2854584" lon="105.0311151"><ele>626.47</ele><time>2026-05-18T23:55:37.000Z</time></trkpt>
        <trkpt lat="28.285562" lon="105.0311084"><ele>626.25</ele><time>2026-05-18T23:55:45.000Z</time></trkpt>
        <trkpt lat="28.2856414" lon="105.0310243"><ele>626.21</ele><time>2026-05-18T23:55:53.000Z</time></trkpt>
        <trkpt lat="28.2856835" lon="105.0308915"><ele>626</ele><time>2026-05-18T23:56:01.000Z</time></trkpt>
        <trkpt lat="28.2856902" lon="105.0307682"><ele>625.78</ele><time>2026-05-18T23:56:07.000Z</time></trkpt>
        <trkpt lat="28.2856917" lon="105.0306538"><ele>625.94</ele><time>2026-05-18T23:56:13.000Z</time></trkpt>
        <trkpt lat="28.2856814" lon="105.0305271"><ele>626.32</ele><time>2026-05-18T23:56:21.000Z</time></trkpt>
        <trkpt lat="28.2856562" lon="105.0304103"><ele>627.02</ele><time>2026-05-18T23:56:29.000Z</time></trkpt>
        <trkpt lat="28.2856645" lon="105.0302919"><ele>627.66</ele><time>2026-05-18T23:56:59.000Z</time></trkpt>
        <trkpt lat="28.2857128" lon="105.0301894"><ele>626.94</ele><time>2026-05-18T23:57:07.000Z</time></trkpt>
        <trkpt lat="28.285786" lon="105.0301093"><ele>626.37</ele><time>2026-05-18T23:57:15.000Z</time></trkpt>
        <trkpt lat="28.2858129" lon="105.0300743"><ele>626.65</ele><time>2026-05-18T23:57:21.000Z</time></trkpt>
        <trkpt lat="28.2858431" lon="105.0299989"><ele>627.53</ele><time>2026-05-18T23:57:39.000Z</time></trkpt>
        <trkpt lat="28.2858658" lon="105.0298958"><ele>627.41</ele><time>2026-05-18T23:57:51.000Z</time></trkpt>
        <trkpt lat="28.2858785" lon="105.0298532"><ele>626.44</ele><time>2026-05-18T23:57:55.000Z</time></trkpt>
        <trkpt lat="28.2858816" lon="105.0297694"><ele>625.15</ele><time>2026-05-18T23:58:17.000Z</time></trkpt>
        <trkpt lat="28.2858889" lon="105.0298433"><ele>621.43</ele><time>2026-05-18T23:58:43.000Z</time></trkpt>
        <trkpt lat="28.2858597" lon="105.0299652"><ele>619.7</ele><time>2026-05-18T23:58:49.000Z</time></trkpt>
        <trkpt lat="28.2858046" lon="105.0300749"><ele>619.99</ele><time>2026-05-18T23:58:57.000Z</time></trkpt>
        <trkpt lat="28.2857639" lon="105.0300214"><ele>621.1</ele><time>2026-05-18T23:59:07.000Z</time></trkpt>
        <trkpt lat="28.2857372" lon="105.0299068"><ele>622.77</ele><time>2026-05-18T23:59:15.000Z</time></trkpt>
        <trkpt lat="28.2857152" lon="105.0297724"><ele>626.17</ele><time>2026-05-18T23:59:23.000Z</time></trkpt>
        <trkpt lat="28.2856756" lon="105.0296513"><ele>629.51</ele><time>2026-05-18T23:59:31.000Z</time></trkpt>
        <trkpt lat="28.2856218" lon="105.0295528"><ele>630.8</ele><time>2026-05-18T23:59:39.000Z</time></trkpt>
        <trkpt lat="28.2855884" lon="105.0294425"><ele>632.2</ele><time>2026-05-18T23:59:47.000Z</time></trkpt>
        <trkpt lat="28.2855451" lon="105.0293369"><ele>632.97</ele><time>2026-05-18T23:59:55.000Z</time></trkpt>
        <trkpt lat="28.2855569" lon="105.0292375"><ele>633.91</ele><time>2026-05-19T00:00:03.000Z</time></trkpt>
        <trkpt lat="28.2855809" lon="105.0291249"><ele>634.85</ele><time>2026-05-19T00:00:13.000Z</time></trkpt>
        <trkpt lat="28.2855998" lon="105.0290065"><ele>636.75</ele><time>2026-05-19T00:00:23.000Z</time></trkpt>
        <trkpt lat="28.285604" lon="105.0288939"><ele>639.49</ele><time>2026-05-19T00:00:31.000Z</time></trkpt>
        <trkpt lat="28.2855844" lon="105.0287827"><ele>642.64</ele><time>2026-05-19T00:00:39.000Z</time></trkpt>
        <trkpt lat="28.2855424" lon="105.0286612"><ele>644.75</ele><time>2026-05-19T00:00:47.000Z</time></trkpt>
        <trkpt lat="28.2854767" lon="105.0285505"><ele>646.56</ele><time>2026-05-19T00:00:55.000Z</time></trkpt>
        <trkpt lat="28.2853983" lon="105.0284654"><ele>647.87</ele><time>2026-05-19T00:01:03.000Z</time></trkpt>
        <trkpt lat="28.2853458" lon="105.0283762"><ele>646.1</ele><time>2026-05-19T00:01:09.000Z</time></trkpt>
        <trkpt lat="28.2853651" lon="105.0282638"><ele>645.18</ele><time>2026-05-19T00:01:17.000Z</time></trkpt>
        <trkpt lat="28.2854064" lon="105.0281457"><ele>645.24</ele><time>2026-05-19T00:01:25.000Z</time></trkpt>
        <trkpt lat="28.2854798" lon="105.028089"><ele>647.1</ele><time>2026-05-19T00:01:33.000Z</time></trkpt>
        <trkpt lat="28.2855788" lon="105.0281211"><ele>649.61</ele><time>2026-05-19T00:01:45.000Z</time></trkpt>
        <trkpt lat="28.2856606" lon="105.0282211"><ele>651.31</ele><time>2026-05-19T00:01:53.000Z</time></trkpt>
        <trkpt lat="28.2857075" lon="105.0283516"><ele>651.92</ele><time>2026-05-19T00:02:01.000Z</time></trkpt>
        <trkpt lat="28.2857597" lon="105.0284545"><ele>652.61</ele><time>2026-05-19T00:02:07.000Z</time></trkpt>
        <trkpt lat="28.2858199" lon="105.0285656"><ele>652.77</ele><time>2026-05-19T00:02:15.000Z</time></trkpt>
        <trkpt lat="28.285885" lon="105.0286594"><ele>652.67</ele><time>2026-05-19T00:02:23.000Z</time></trkpt>
        <trkpt lat="28.2859542" lon="105.0287668"><ele>652.6</ele><time>2026-05-19T00:02:31.000Z</time></trkpt>
        <trkpt lat="28.2859761" lon="105.0288734"><ele>654.92</ele><time>2026-05-19T00:02:37.000Z</time></trkpt>
        <trkpt lat="28.2859953" lon="105.028975"><ele>657.03</ele><time>2026-05-19T00:02:43.000Z</time></trkpt>
        <trkpt lat="28.2860416" lon="105.0290587"><ele>658.61</ele><time>2026-05-19T00:02:49.000Z</time></trkpt>
        <trkpt lat="28.2860996" lon="105.0291422"><ele>658.76</ele><time>2026-05-19T00:02:55.000Z</time></trkpt>
        <trkpt lat="28.2861805" lon="105.0291878"><ele>655.73</ele><time>2026-05-19T00:03:01.000Z</time></trkpt>
        <trkpt lat="28.2862754" lon="105.0292212"><ele>654.15</ele><time>2026-05-19T00:03:07.000Z</time></trkpt>
        <trkpt lat="28.2863689" lon="105.0292661"><ele>653.61</ele><time>2026-05-19T00:03:13.000Z</time></trkpt>
        <trkpt lat="28.2864113" lon="105.0293542"><ele>654.29</ele><time>2026-05-19T00:03:19.000Z</time></trkpt>
        <trkpt lat="28.2864346" lon="105.029459"><ele>655.43</ele><time>2026-05-19T00:03:25.000Z</time></trkpt>
        <trkpt lat="28.2864603" lon="105.0295808"><ele>655.78</ele><time>2026-05-19T00:03:33.000Z</time></trkpt>
        <trkpt lat="28.2865025" lon="105.0296954"><ele>655.3</ele><time>2026-05-19T00:03:41.000Z</time></trkpt>
        <trkpt lat="28.2865853" lon="105.0297665"><ele>653.06</ele><time>2026-05-19T00:03:49.000Z</time></trkpt>
        <trkpt lat="28.2866823" lon="105.0297285"><ele>652.03</ele><time>2026-05-19T00:03:57.000Z</time></trkpt>
        <trkpt lat="28.2867272" lon="105.0296265"><ele>650.73</ele><time>2026-05-19T00:04:03.000Z</time></trkpt>
        <trkpt lat="28.2867851" lon="105.0295064"><ele>649.71</ele><time>2026-05-19T00:04:11.000Z</time></trkpt>
        <trkpt lat="28.2868677" lon="105.0294729"><ele>650.16</ele><time>2026-05-19T00:04:17.000Z</time></trkpt>
        <trkpt lat="28.2869698" lon="105.0295097"><ele>649.53</ele><time>2026-05-19T00:04:25.000Z</time></trkpt>
        <trkpt lat="28.2870753" lon="105.029556"><ele>649.5</ele><time>2026-05-19T00:04:33.000Z</time></trkpt>
        <trkpt lat="28.2871818" lon="105.0295847"><ele>649.48</ele><time>2026-05-19T00:04:41.000Z</time></trkpt>
        <trkpt lat="28.2872783" lon="105.0295409"><ele>649.67</ele><time>2026-05-19T00:04:49.000Z</time></trkpt>
        <trkpt lat="28.2873378" lon="105.0294522"><ele>648.77</ele><time>2026-05-19T00:04:55.000Z</time></trkpt>
        <trkpt lat="28.2873038" lon="105.0293451"><ele>648.64</ele><time>2026-05-19T00:05:01.000Z</time></trkpt>
        <trkpt lat="28.2872385" lon="105.0292467"><ele>648.23</ele><time>2026-05-19T00:05:07.000Z</time></trkpt>
        <trkpt lat="28.2871586" lon="105.0291642"><ele>646.79</ele><time>2026-05-19T00:05:17.000Z</time></trkpt>
        <trkpt lat="28.2870753" lon="105.0290993"><ele>645.77</ele><time>2026-05-19T00:05:25.000Z</time></trkpt>
        <trkpt lat="28.2870047" lon="105.029025"><ele>643.9</ele><time>2026-05-19T00:05:31.000Z</time></trkpt>
        <trkpt lat="28.2869399" lon="105.0289387"><ele>642.03</ele><time>2026-05-19T00:05:39.000Z</time></trkpt>
        <trkpt lat="28.2869227" lon="105.0288562"><ele>640.31</ele><time>2026-05-19T00:05:47.000Z</time></trkpt>
        <trkpt lat="28.2868847" lon="105.028757"><ele>638.51</ele><time>2026-05-19T00:05:57.000Z</time></trkpt>
        <trkpt lat="28.2868189" lon="105.0286526"><ele>636.02</ele><time>2026-05-19T00:06:03.000Z</time></trkpt>
        <trkpt lat="28.2867425" lon="105.028583"><ele>635.26</ele><time>2026-05-19T00:06:09.000Z</time></trkpt>
        <trkpt lat="28.2866567" lon="105.0285131"><ele>636.06</ele><time>2026-05-19T00:06:17.000Z</time></trkpt>
        <trkpt lat="28.2866005" lon="105.0284111"><ele>635.72</ele><time>2026-05-19T00:06:25.000Z</time></trkpt>
        <trkpt lat="28.2866377" lon="105.0283121"><ele>635.43</ele><time>2026-05-19T00:06:33.000Z</time></trkpt>
        <trkpt lat="28.2867298" lon="105.0282914"><ele>635.06</ele><time>2026-05-19T00:06:39.000Z</time></trkpt>
        <trkpt lat="28.2868519" lon="105.0283045"><ele>635.4</ele><time>2026-05-19T00:06:47.000Z</time></trkpt>
        <trkpt lat="28.2869693" lon="105.0283447"><ele>634.88</ele><time>2026-05-19T00:06:55.000Z</time></trkpt>
        <trkpt lat="28.2870839" lon="105.0284012"><ele>634.39</ele><time>2026-05-19T00:07:03.000Z</time></trkpt>
        <trkpt lat="28.2871649" lon="105.0284738"><ele>635.77</ele><time>2026-05-19T00:07:09.000Z</time></trkpt>
        <trkpt lat="28.2871886" lon="105.0285857"><ele>637.91</ele><time>2026-05-19T00:07:17.000Z</time></trkpt>
        <trkpt lat="28.2872806" lon="105.0286343"><ele>638.62</ele><time>2026-05-19T00:07:27.000Z</time></trkpt>
        <trkpt lat="28.2873801" lon="105.0285746"><ele>638.31</ele><time>2026-05-19T00:07:33.000Z</time></trkpt>
        <trkpt lat="28.2874846" lon="105.0285359"><ele>636.5</ele><time>2026-05-19T00:07:39.000Z</time></trkpt>
        <trkpt lat="28.2875774" lon="105.0285489"><ele>635.63</ele><time>2026-05-19T00:07:43.000Z</time></trkpt>
        <trkpt lat="28.2876784" lon="105.0286066"><ele>635.19</ele><time>2026-05-19T00:07:49.000Z</time></trkpt>
        <trkpt lat="28.2877682" lon="105.0286796"><ele>636.27</ele><time>2026-05-19T00:07:55.000Z</time></trkpt>
        <trkpt lat="28.287844" lon="105.0287608"><ele>636.87</ele><time>2026-05-19T00:08:01.000Z</time></trkpt>
        <trkpt lat="28.2879202" lon="105.0288495"><ele>636.67</ele><time>2026-05-19T00:08:09.000Z</time></trkpt>
        <trkpt lat="28.2879961" lon="105.0289222"><ele>637.46</ele><time>2026-05-19T00:08:15.000Z</time></trkpt>
        <trkpt lat="28.2880922" lon="105.0289619"><ele>638.1</ele><time>2026-05-19T00:08:23.000Z</time></trkpt>
        <trkpt lat="28.288183" lon="105.0289022"><ele>637.11</ele><time>2026-05-19T00:08:31.000Z</time></trkpt>
        <trkpt lat="28.2882333" lon="105.0287994"><ele>636.36</ele><time>2026-05-19T00:08:37.000Z</time></trkpt>
        <trkpt lat="28.2882619" lon="105.0286874"><ele>635.61</ele><time>2026-05-19T00:08:43.000Z</time></trkpt>
        <trkpt lat="28.288344" lon="105.02863"><ele>634.94</ele><time>2026-05-19T00:08:51.000Z</time></trkpt>
        <trkpt lat="28.2884433" lon="105.028647"><ele>635.27</ele><time>2026-05-19T00:08:59.000Z</time></trkpt>
        <trkpt lat="28.288546" lon="105.0287038"><ele>634.69</ele><time>2026-05-19T00:09:07.000Z</time></trkpt>
        <trkpt lat="28.2886392" lon="105.0287845"><ele>631.94</ele><time>2026-05-19T00:09:15.000Z</time></trkpt>
        <trkpt lat="28.288729" lon="105.0288646"><ele>629.01</ele><time>2026-05-19T00:09:23.000Z</time></trkpt>
        <trkpt lat="28.2888181" lon="105.0289578"><ele>625.71</ele><time>2026-05-19T00:09:31.000Z</time></trkpt>
        <trkpt lat="28.2888943" lon="105.029033"><ele>623.2</ele><time>2026-05-19T00:09:43.000Z</time></trkpt>
        <trkpt lat="28.2889772" lon="105.0291086"><ele>621.22</ele><time>2026-05-19T00:09:53.000Z</time></trkpt>
        <trkpt lat="28.2890686" lon="105.029168"><ele>619.36</ele><time>2026-05-19T00:10:01.000Z</time></trkpt>
        <trkpt lat="28.2891708" lon="105.0291872"><ele>618.39</ele><time>2026-05-19T00:10:09.000Z</time></trkpt>
        <trkpt lat="28.2892826" lon="105.0292118"><ele>617.41</ele><time>2026-05-19T00:10:17.000Z</time></trkpt>
        <trkpt lat="28.2893779" lon="105.0292734"><ele>616.52</ele><time>2026-05-19T00:10:25.000Z</time></trkpt>
        <trkpt lat="28.2894694" lon="105.0293305"><ele>615.29</ele><time>2026-05-19T00:10:33.000Z</time></trkpt>
        <trkpt lat="28.2895733" lon="105.0293154"><ele>613.85</ele><time>2026-05-19T00:10:41.000Z</time></trkpt>
        <trkpt lat="28.289651" lon="105.0292226"><ele>613.89</ele><time>2026-05-19T00:10:49.000Z</time></trkpt>
        <trkpt lat="28.2897412" lon="105.0291274"><ele>613.77</ele><time>2026-05-19T00:10:57.000Z</time></trkpt>
        <trkpt lat="28.289812" lon="105.0290314"><ele>612.77</ele><time>2026-05-19T00:11:05.000Z</time></trkpt>
        <trkpt lat="28.2898482" lon="105.028918"><ele>611.82</ele><time>2026-05-19T00:11:13.000Z</time></trkpt>
        <trkpt lat="28.2898602" lon="105.0288071"><ele>608.93</ele><time>2026-05-19T00:11:19.000Z</time></trkpt>
        <trkpt lat="28.289856" lon="105.0286789"><ele>606.2</ele><time>2026-05-19T00:11:27.000Z</time></trkpt>
        <trkpt lat="28.2897909" lon="105.0285778"><ele>604.67</ele><time>2026-05-19T00:11:35.000Z</time></trkpt>
        <trkpt lat="28.2896906" lon="105.0285164"><ele>602.55</ele><time>2026-05-19T00:11:43.000Z</time></trkpt>
        <trkpt lat="28.2896113" lon="105.0284237"><ele>599.29</ele><time>2026-05-19T00:11:51.000Z</time></trkpt>
        <trkpt lat="28.2895524" lon="105.0283198"><ele>597.34</ele><time>2026-05-19T00:11:59.000Z</time></trkpt>
        <trkpt lat="28.2895655" lon="105.0282155"><ele>595.21</ele><time>2026-05-19T00:12:07.000Z</time></trkpt>
        <trkpt lat="28.2895623" lon="105.0280979"><ele>595.25</ele><time>2026-05-19T00:12:17.000Z</time></trkpt>
        <trkpt lat="28.2896238" lon="105.0280139"><ele>593.31</ele><time>2026-05-19T00:12:25.000Z</time></trkpt>
        <trkpt lat="28.2897202" lon="105.0280197"><ele>590.14</ele><time>2026-05-19T00:12:33.000Z</time></trkpt>
        <trkpt lat="28.2898215" lon="105.0280513"><ele>587.05</ele><time>2026-05-19T00:12:41.000Z</time></trkpt>
        <trkpt lat="28.2899196" lon="105.0280907"><ele>583.89</ele><time>2026-05-19T00:12:49.000Z</time></trkpt>
        <trkpt lat="28.2900175" lon="105.0281279"><ele>581.57</ele><time>2026-05-19T00:12:57.000Z</time></trkpt>
        <trkpt lat="28.290129" lon="105.0281553"><ele>579.36</ele><time>2026-05-19T00:13:07.000Z</time></trkpt>
        <trkpt lat="28.2902231" lon="105.0282011"><ele>576.88</ele><time>2026-05-19T00:13:17.000Z</time></trkpt>
        <trkpt lat="28.2903092" lon="105.0282744"><ele>574.55</ele><time>2026-05-19T00:13:25.000Z</time></trkpt>
        <trkpt lat="28.2904008" lon="105.0283445"><ele>570.24</ele><time>2026-05-19T00:13:33.000Z</time></trkpt>
        <trkpt lat="28.2904928" lon="105.0284147"><ele>566.5</ele><time>2026-05-19T00:13:41.000Z</time></trkpt>
        <trkpt lat="28.2905898" lon="105.0284324"><ele>563.26</ele><time>2026-05-19T00:13:49.000Z</time></trkpt>
        <trkpt lat="28.2906902" lon="105.0283945"><ele>560.06</ele><time>2026-05-19T00:13:57.000Z</time></trkpt>
        <trkpt lat="28.2907807" lon="105.0283493"><ele>557.14</ele><time>2026-05-19T00:14:03.000Z</time></trkpt>
        <trkpt lat="28.2908875" lon="105.0283199"><ele>555.26</ele><time>2026-05-19T00:14:11.000Z</time></trkpt>
        <trkpt lat="28.2909903" lon="105.0283567"><ele>551.96</ele><time>2026-05-19T00:14:19.000Z</time></trkpt>
        <trkpt lat="28.2910652" lon="105.0284281"><ele>549.68</ele><time>2026-05-19T00:14:25.000Z</time></trkpt>
        <trkpt lat="28.2911463" lon="105.0285108"><ele>548.54</ele><time>2026-05-19T00:14:33.000Z</time></trkpt>
        <trkpt lat="28.2912154" lon="105.0286124"><ele>547.68</ele><time>2026-05-19T00:14:39.000Z</time></trkpt>
        <trkpt lat="28.2912396" lon="105.0286539"><ele>547.45</ele><time>2026-05-19T00:14:43.000Z</time></trkpt>
        <trkpt lat="28.2912745" lon="105.0285912"><ele>546.75</ele><time>2026-05-19T00:15:09.000Z</time></trkpt>
        <trkpt lat="28.2913578" lon="105.0286076"><ele>544.63</ele><time>2026-05-19T00:15:19.000Z</time></trkpt>
        <trkpt lat="28.291452" lon="105.0286338"><ele>542.86</ele><time>2026-05-19T00:15:27.000Z</time></trkpt>
        <trkpt lat="28.2915332" lon="105.0286994"><ele>540.27</ele><time>2026-05-19T00:15:35.000Z</time></trkpt>
        <trkpt lat="28.2916163" lon="105.0287542"><ele>536.6</ele><time>2026-05-19T00:15:43.000Z</time></trkpt>
        <trkpt lat="28.291698" lon="105.0287268"><ele>534</ele><time>2026-05-19T00:15:51.000Z</time></trkpt>
        <trkpt lat="28.2917537" lon="105.0286211"><ele>531.81</ele><time>2026-05-19T00:15:59.000Z</time></trkpt>
        <trkpt lat="28.2918154" lon="105.02852"><ele>529.74</ele><time>2026-05-19T00:16:05.000Z</time></trkpt>
        <trkpt lat="28.2919125" lon="105.0285055"><ele>527.63</ele><time>2026-05-19T00:16:11.000Z</time></trkpt>
        <trkpt lat="28.2920134" lon="105.0285442"><ele>525.7</ele><time>2026-05-19T00:16:17.000Z</time></trkpt>
        <trkpt lat="28.2920547" lon="105.0286524"><ele>525.36</ele><time>2026-05-19T00:16:25.000Z</time></trkpt>
        <trkpt lat="28.2920591" lon="105.0286901"><ele>524.89</ele><time>2026-05-19T00:16:27.000Z</time></trkpt>
        <trkpt lat="28.2920427" lon="105.0286034"><ele>524.43</ele><time>2026-05-19T00:16:41.000Z</time></trkpt>
        <trkpt lat="28.2921237" lon="105.0286438"><ele>524.63</ele><time>2026-05-19T00:16:57.000Z</time></trkpt>
        <trkpt lat="28.2921602" lon="105.0287526"><ele>526.34</ele><time>2026-05-19T00:17:05.000Z</time></trkpt>
        <trkpt lat="28.2921643" lon="105.0288731"><ele>527.31</ele><time>2026-05-19T00:17:11.000Z</time></trkpt>
        <trkpt lat="28.2921953" lon="105.0289944"><ele>528.01</ele><time>2026-05-19T00:17:19.000Z</time></trkpt>
        <trkpt lat="28.2922735" lon="105.0291113"><ele>527.93</ele><time>2026-05-19T00:17:29.000Z</time></trkpt>
        <trkpt lat="28.2923544" lon="105.0291913"><ele>527.1</ele><time>2026-05-19T00:17:35.000Z</time></trkpt>
        <trkpt lat="28.2924507" lon="105.0292124"><ele>526.55</ele><time>2026-05-19T00:17:43.000Z</time></trkpt>
        <trkpt lat="28.2925627" lon="105.0292333"><ele>524.69</ele><time>2026-05-19T00:17:51.000Z</time></trkpt>
        <trkpt lat="28.2926604" lon="105.0292674"><ele>523.35</ele><time>2026-05-19T00:18:01.000Z</time></trkpt>
        <trkpt lat="28.2927583" lon="105.0293004"><ele>521.97</ele><time>2026-05-19T00:18:13.000Z</time></trkpt>
        <trkpt lat="28.2928429" lon="105.0292406"><ele>521.61</ele><time>2026-05-19T00:18:23.000Z</time></trkpt>
        <trkpt lat="28.2929157" lon="105.0291496"><ele>518.52</ele><time>2026-05-19T00:18:31.000Z</time></trkpt>
        <trkpt lat="28.2929454" lon="105.0290304"><ele>516.81</ele><time>2026-05-19T00:18:39.000Z</time></trkpt>
        <trkpt lat="28.2930214" lon="105.0289829"><ele>514.93</ele><time>2026-05-19T00:18:53.000Z</time></trkpt>
        <trkpt lat="28.2930699" lon="105.0288836"><ele>510.31</ele><time>2026-05-19T00:19:31.000Z</time></trkpt>
        <trkpt lat="28.293106" lon="105.028762"><ele>506.71</ele><time>2026-05-19T00:19:47.000Z</time></trkpt>
        <trkpt lat="28.2931605" lon="105.0286814"><ele>503.31</ele><time>2026-05-19T00:20:01.000Z</time></trkpt>
        <trkpt lat="28.293216" lon="105.0287298"><ele>499.99</ele><time>2026-05-19T00:20:09.000Z</time></trkpt>
        <trkpt lat="28.2932854" lon="105.0288239"><ele>497.84</ele><time>2026-05-19T00:20:17.000Z</time></trkpt>
        <trkpt lat="28.2933747" lon="105.0288884"><ele>495.03</ele><time>2026-05-19T00:20:31.000Z</time></trkpt>
        <trkpt lat="28.2934684" lon="105.0289414"><ele>492.27</ele><time>2026-05-19T00:20:53.000Z</time></trkpt>
        <trkpt lat="28.2935612" lon="105.0289643"><ele>490.28</ele><time>2026-05-19T00:21:13.000Z</time></trkpt>
        <trkpt lat="28.2936644" lon="105.0289328"><ele>488.38</ele><time>2026-05-19T00:21:25.000Z</time></trkpt>
        <trkpt lat="28.2937644" lon="105.0289206"><ele>485.9</ele><time>2026-05-19T00:21:31.000Z</time></trkpt>
        <trkpt lat="28.2938567" lon="105.0289304"><ele>484.61</ele><time>2026-05-19T00:21:43.000Z</time></trkpt>
        <trkpt lat="28.2938748" lon="105.0290176"><ele>482.77</ele><time>2026-05-19T00:21:55.000Z</time></trkpt>
        <trkpt lat="28.2938862" lon="105.0290838"><ele>479.77</ele><time>2026-05-19T00:22:01.000Z</time></trkpt>
        <trkpt lat="28.2938854" lon="105.0291846"><ele>478.36</ele><time>2026-05-19T00:22:15.000Z</time></trkpt>
        <trkpt lat="28.2938321" lon="105.0292941"><ele>475.81</ele><time>2026-05-19T00:22:23.000Z</time></trkpt>
        <trkpt lat="28.2937856" lon="105.0293996"><ele>473.24</ele><time>2026-05-19T00:22:31.000Z</time></trkpt>
        <trkpt lat="28.2938344" lon="105.0294597"><ele>472.01</ele><time>2026-05-19T00:22:43.000Z</time></trkpt>
        <trkpt lat="28.2939067" lon="105.0295217"><ele>467.93</ele><time>2026-05-19T00:22:53.000Z</time></trkpt>
        <trkpt lat="28.2939953" lon="105.0295756"><ele>465.13</ele><time>2026-05-19T00:23:03.000Z</time></trkpt>
        <trkpt lat="28.2940742" lon="105.0296511"><ele>461.97</ele><time>2026-05-19T00:23:13.000Z</time></trkpt>
        <trkpt lat="28.2941518" lon="105.0297255"><ele>457.06</ele><time>2026-05-19T00:23:25.000Z</time></trkpt>
        <trkpt lat="28.2941608" lon="105.029835"><ele>452.52</ele><time>2026-05-19T00:23:39.000Z</time></trkpt>
        <trkpt lat="28.2941597" lon="105.0299489"><ele>447.09</ele><time>2026-05-19T00:23:49.000Z</time></trkpt>
        <trkpt lat="28.2941933" lon="105.0300579"><ele>444.58</ele><time>2026-05-19T00:23:57.000Z</time></trkpt>
        <trkpt lat="28.2941321" lon="105.0301204"><ele>443.93</ele><time>2026-05-19T00:24:15.000Z</time></trkpt>
        <trkpt lat="28.2940737" lon="105.0302002"><ele>439.4</ele><time>2026-05-19T00:24:27.000Z</time></trkpt>
        <trkpt lat="28.2940271" lon="105.0303011"><ele>435.77</ele><time>2026-05-19T00:24:43.000Z</time></trkpt>
        <trkpt lat="28.2940321" lon="105.0303414"><ele>426.29</ele><time>2026-05-19T00:24:51.000Z</time></trkpt>
        <trkpt lat="28.2940971" lon="105.0304006"><ele>421.3</ele><time>2026-05-19T00:25:13.000Z</time></trkpt>
        <trkpt lat="28.294157" lon="105.0304815"><ele>415.73</ele><time>2026-05-19T00:25:19.000Z</time></trkpt>
        <trkpt lat="28.2942296" lon="105.0305374"><ele>411.42</ele><time>2026-05-19T00:25:33.000Z</time></trkpt>
        <trkpt lat="28.2943047" lon="105.0306058"><ele>406.69</ele><time>2026-05-19T00:25:43.000Z</time></trkpt>
        <trkpt lat="28.2943912" lon="105.0306842"><ele>403.51</ele><time>2026-05-19T00:25:53.000Z</time></trkpt>
        <trkpt lat="28.2944262" lon="105.0307122"><ele>400.84</ele><time>2026-05-19T00:25:55.000Z</time></trkpt>
        <trkpt lat="28.2944901" lon="105.0307669"><ele>399.28</ele><time>2026-05-19T00:26:05.000Z</time></trkpt>
        <trkpt lat="28.294548" lon="105.0308474"><ele>395.48</ele><time>2026-05-19T00:26:13.000Z</time></trkpt>
        <trkpt lat="28.2946153" lon="105.030923"><ele>392.96</ele><time>2026-05-19T00:26:27.000Z</time></trkpt>
        <trkpt lat="28.294699" lon="105.0309721"><ele>388.09</ele><time>2026-05-19T00:26:37.000Z</time></trkpt>
        <trkpt lat="28.2947297" lon="105.0310708"><ele>383.9</ele><time>2026-05-19T00:26:51.000Z</time></trkpt>
        <trkpt lat="28.2947291" lon="105.0311024"><ele>380.54</ele><time>2026-05-19T00:26:53.000Z</time></trkpt>
        <trkpt lat="28.2947759" lon="105.0311614"><ele>378.77</ele><time>2026-05-19T00:27:17.000Z</time></trkpt>
        <trkpt lat="28.2948725" lon="105.0311784"><ele>377.61</ele><time>2026-05-19T00:27:27.000Z</time></trkpt>
        <trkpt lat="28.2949446" lon="105.0312528"><ele>376.61</ele><time>2026-05-19T00:27:35.000Z</time></trkpt>
        <trkpt lat="28.2950452" lon="105.0312953"><ele>375.67</ele><time>2026-05-19T00:27:47.000Z</time></trkpt>
        <trkpt lat="28.2951363" lon="105.0312614"><ele>374.22</ele><time>2026-05-19T00:27:53.000Z</time></trkpt>
        <trkpt lat="28.2952241" lon="105.0312024"><ele>372.82</ele><time>2026-05-19T00:28:01.000Z</time></trkpt>
        <trkpt lat="28.2953165" lon="105.0311307"><ele>371.48</ele><time>2026-05-19T00:28:09.000Z</time></trkpt>
        <trkpt lat="28.2954196" lon="105.0311067"><ele>370.42</ele><time>2026-05-19T00:28:17.000Z</time></trkpt>
        <trkpt lat="28.2954693" lon="105.031199"><ele>368.92</ele><time>2026-05-19T00:28:25.000Z</time></trkpt>
        <trkpt lat="28.2955047" lon="105.0313105"><ele>368.04</ele><time>2026-05-19T00:28:31.000Z</time></trkpt>
        <trkpt lat="28.2955365" lon="105.0314185"><ele>367.37</ele><time>2026-05-19T00:28:37.000Z</time></trkpt>
        <trkpt lat="28.2955707" lon="105.0315442"><ele>367.3</ele><time>2026-05-19T00:28:45.000Z</time></trkpt>
        <trkpt lat="28.295599" lon="105.0316542"><ele>367.77</ele><time>2026-05-19T00:28:51.000Z</time></trkpt>
        <trkpt lat="28.2955987" lon="105.0317772"><ele>368.18</ele><time>2026-05-19T00:28:59.000Z</time></trkpt>
        <trkpt lat="28.2956155" lon="105.0318877"><ele>367.14</ele><time>2026-05-19T00:29:07.000Z</time></trkpt>
        <trkpt lat="28.2955874" lon="105.0319956"><ele>365.57</ele><time>2026-05-19T00:29:15.000Z</time></trkpt>
        <trkpt lat="28.295565" lon="105.0321077"><ele>365.67</ele><time>2026-05-19T00:29:23.000Z</time></trkpt>
        <trkpt lat="28.2955866" lon="105.0322086"><ele>365.58</ele><time>2026-05-19T00:29:31.000Z</time></trkpt>
        <trkpt lat="28.2956338" lon="105.0323"><ele>366.15</ele><time>2026-05-19T00:29:39.000Z</time></trkpt>
        <trkpt lat="28.2956862" lon="105.0324071"><ele>367.05</ele><time>2026-05-19T00:29:49.000Z</time></trkpt>
        <trkpt lat="28.2957426" lon="105.0325159"><ele>368.75</ele><time>2026-05-19T00:29:59.000Z</time></trkpt>
        <trkpt lat="28.2957755" lon="105.0326236"><ele>370.28</ele><time>2026-05-19T00:30:09.000Z</time></trkpt>
        <trkpt lat="28.2957687" lon="105.0327305"><ele>371.5</ele><time>2026-05-19T00:30:19.000Z</time></trkpt>
        <trkpt lat="28.2957772" lon="105.032841"><ele>373.12</ele><time>2026-05-19T00:30:29.000Z</time></trkpt>
        <trkpt lat="28.2958056" lon="105.0329408"><ele>373.29</ele><time>2026-05-19T00:30:39.000Z</time></trkpt>
        <trkpt lat="28.2958812" lon="105.0330154"><ele>374.62</ele><time>2026-05-19T00:30:49.000Z</time></trkpt>
        <trkpt lat="28.2958736" lon="105.0329417"><ele>376.52</ele><time>2026-05-19T00:30:57.000Z</time></trkpt>
        <trkpt lat="28.2958495" lon="105.0328637"><ele>377.27</ele><time>2026-05-19T00:31:03.000Z</time></trkpt>
        <trkpt lat="28.2958495" lon="105.0328637"><ele>377.27</ele><time>2026-05-19T00:32:32.000Z</time></trkpt>
      </trkseg>
  </trk>
</gpx>